Observation data for Colorado City on 03/23/2019      Previous  Date  Next       Current Mesonet Observations  Soil Data  Daily Summary Page  Observations in Plain Language
KCO2 230500Z 15006KT 16/11 A2999 RMK A01 T01560110  RH  074%=      5-min Rain = 0
KCO2 230501Z 15006KT 16/11 A2999 RMK A01 T01560110  RH  074%=      5-min Rain = 0
KCO2 230502Z 15006KT 16/11 A2999 RMK A01 T01560110  RH  074%=      5-min Rain = 0
KCO2 230503Z 14005KT 16/11 A2999 RMK A01 T01560110  RH  074%=      5-min Rain = 0
KCO2 230504Z 15006KT 16/11 A2999 RMK A01 T01560110  RH  074%=      5-min Rain = 0
KCO2 230505Z 15005KT 16/11 A2999 RMK A01 T01560111  RH  074%=      5-min Rain = 0
KCO2 230506Z 15006KT 16/11 A2999 RMK A01 T01550110  RH  075%=      5-min Rain = 0
KCO2 230507Z 15005KT 16/11 A2999 RMK A01 T01550110  RH  075%=      5-min Rain = 0
KCO2 230508Z 15005KT 16/11 A2999 RMK A01 T01550110  RH  075%=      5-min Rain = 0
KCO2 230509Z 15005KT 16/11 A2999 RMK A01 T01550110  RH  075%=      5-min Rain = 0
KCO2 230510Z 15005KT 15/11 A2999 RMK A01 T01540110  RH  075%=      5-min Rain = 0
KCO2 230511Z 15004KT 15/11 A2999 RMK A01 T01540110  RH  075%=      5-min Rain = 0
KCO2 230512Z 15005KT 15/11 A2999 RMK A01 T01540110  RH  075%=      5-min Rain = 0
KCO2 230513Z 15005KT 15/11 A2999 RMK A01 T01540110  RH  075%=      5-min Rain = 0
KCO2 230514Z 15004KT 15/11 A2999 RMK A01 T01530110  RH  075%=      5-min Rain = 0
KCO2 230515Z 15005KT 15/11 A2999 RMK A01 T01530110  RH  075%=      5-min Rain = 0
KCO2 230516Z 15005KT 15/11 A2999 RMK A01 T01530110  RH  076%=      5-min Rain = 0
KCO2 230517Z 15005KT 15/11 A2999 RMK A01 T01530110  RH  076%=      5-min Rain = 0
KCO2 230518Z 15005KT 15/11 A2999 RMK A01 T01520110  RH  076%=      5-min Rain = 0
KCO2 230519Z 15005KT 15/11 A2999 RMK A01 T01520110  RH  076%=      5-min Rain = 0
KCO2 230520Z 15006KT 15/11 A2999 RMK A01 T01520110  RH  076%=      5-min Rain = 0
KCO2 230521Z 15006KT 15/11 A2999 RMK A01 T01520110  RH  076%=      5-min Rain = 0
KCO2 230522Z 15005KT 15/11 A2999 RMK A01 T01520111  RH  076%=      5-min Rain = 0
KCO2 230523Z 15005KT 15/11 A2999 RMK A01 T01520110  RH  076%=      5-min Rain = 0
KCO2 230524Z 15005KT 15/11 A2999 RMK A01 T01520110  RH  076%=      5-min Rain = 0
KCO2 230525Z 16006KT 15/11 A2999 RMK A01 T01510110  RH  076%=      5-min Rain = 0
KCO2 230526Z 15005KT 15/11 A2999 RMK A01 T01520111  RH  076%=      5-min Rain = 0
KCO2 230527Z 15006KT 15/11 A2999 RMK A01 T01510110  RH  076%=      5-min Rain = 0
KCO2 230528Z 15005KT 15/11 A2999 RMK A01 T01520111  RH  076%=      5-min Rain = 0
KCO2 230529Z 15006KT 15/11 A2999 RMK A01 T01520111  RH  076%=      5-min Rain = 0
KCO2 230530Z 15006KT 15/11 A2999 RMK A01 T01520111  RH  076%=      5-min Rain = 0
KCO2 230531Z 15006KT 15/11 A2999 RMK A01 T01530112  RH  076%=      5-min Rain = 0
KCO2 230532Z 15006KT 15/11 A2999 RMK A01 T01530112  RH  076%=      5-min Rain = 0
KCO2 230533Z 15006KT 15/11 A2999 RMK A01 T01530112  RH  076%=      5-min Rain = 0
KCO2 230534Z 15006KT 15/11 A2999 RMK A01 T01530111  RH  076%=      5-min Rain = 0
KCO2 230535Z 15006KT 15/11 A2999 RMK A01 T01540112  RH  076%=      5-min Rain = 0
KCO2 230536Z 15006KT 15/11 A2999 RMK A01 T01540112  RH  076%=      5-min Rain = 0
KCO2 230537Z 15007KT 15/11 A2999 RMK A01 T01540112  RH  076%=      5-min Rain = 0
KCO2 230538Z 15006KT 16/11 A2999 RMK A01 T01550113  RH  076%=      5-min Rain = 0
KCO2 230539Z 16007KT 16/11 A2999 RMK A01 T01550113  RH  076%=      5-min Rain = 0
KCO2 230540Z 15007KT 16/11 A2999 RMK A01 T01550113  RH  076%=      5-min Rain = 0
KCO2 230541Z 16007KT 16/11 A2999 RMK A01 T01560113  RH  076%=      5-min Rain = 0
KCO2 230542Z 15007KT 16/11 A2999 RMK A01 T01560113  RH  075%=      5-min Rain = 0
KCO2 230543Z 16007KT 16/11 A2999 RMK A01 T01560113  RH  075%=      5-min Rain = 0
KCO2 230544Z 16007KT 16/11 A2999 RMK A01 T01560113  RH  075%=      5-min Rain = 0
KCO2 230545Z 15007KT 16/11 A2999 RMK A01 T01560113  RH  076%=      5-min Rain = 0
KCO2 230546Z 15008KT 16/11 A2999 RMK A01 T01560113  RH  076%=      5-min Rain = 0
KCO2 230547Z 16008KT 16/11 A2999 RMK A01 T01560113  RH  076%=      5-min Rain = 0
KCO2 230548Z 15008KT 16/11 A2999 RMK A01 T01560114  RH  076%=      5-min Rain = 0
KCO2 230549Z 16007KT 16/11 A2999 RMK A01 T01560113  RH  076%=      5-min Rain = 0
KCO2 230550Z 16007KT 16/11 A2999 RMK A01 T01560113  RH  076%=      5-min Rain = 0
KCO2 230551Z 15007KT 16/11 A2999 RMK A01 T01550113  RH  076%=      5-min Rain = 0
KCO2 230552Z 16007KT 15/11 A2999 RMK A01 T01540112  RH  076%=      5-min Rain = 0
KCO2 230553Z 15007KT 15/11 A2999 RMK A01 T01540112  RH  076%=      5-min Rain = 0
KCO2 230554Z 15007KT 15/11 A2999 RMK A01 T01530112  RH  077%=      5-min Rain = 0
KCO2 230555Z 16007KT 15/11 A2999 RMK A01 T01530113  RH  077%=      5-min Rain = 0
KCO2 230556Z 16007KT 15/11 A2999 RMK A01 T01530113  RH  077%=      5-min Rain = 0
KCO2 230557Z 16007KT 15/11 A2999 RMK A01 T01530113  RH  077%=      5-min Rain = 0
KCO2 230558Z 16007KT 15/11 A2999 RMK A01 T01520112  RH  077%=      5-min Rain = 0
KCO2 230559Z 16008KT 15/11 A2999 RMK A01 T01520113  RH  077%=      5-min Rain = 0
KCO2 230600Z 16008KT 15/11 A2999 RMK A01 T01520113  RH  077%=      5-min Rain = 0
KCO2 230601Z 16007KT 15/11 A2999 RMK A01 T01520113  RH  077%=      5-min Rain = 0
KCO2 230602Z 16008KT 15/11 A2999 RMK A01 T01520113  RH  077%=      5-min Rain = 0
KCO2 230603Z 16007KT 15/11 A2999 RMK A01 T01520113  RH  077%=      5-min Rain = 0
KCO2 230604Z 16007KT 15/11 A30 RMK A01 T01520113  RH  077%=      5-min Rain = 0
KCO2 230605Z 16007KT 15/11 A2999 RMK A01 T01520113  RH  078%=      5-min Rain = 0
KCO2 230606Z 16007KT 15/11 A2999 RMK A01 T01520114  RH  078%=      5-min Rain = 0
KCO2 230607Z 16007KT 15/11 A30 RMK A01 T01520114  RH  078%=      5-min Rain = 0
KCO2 230608Z 16008KT 15/11 A2999 RMK A01 T01520114  RH  078%=      5-min Rain = 0
KCO2 230609Z 15007KT 15/11 A2999 RMK A01 T01530114  RH  078%=      5-min Rain = 0
KCO2 230610Z 16007KT 15/11 A2999 RMK A01 T01530114  RH  077%=      5-min Rain = 0
KCO2 230611Z 16007KT 15/11 A2999 RMK A01 T01530114  RH  077%=      5-min Rain = 0
KCO2 230612Z 16007KT 15/11 A2999 RMK A01 T01530114  RH  077%=      5-min Rain = 0
KCO2 230613Z 16007KT 15/12 A2999 RMK A01 T01530115  RH  078%=      5-min Rain = 0
KCO2 230614Z 15008KT 15/12 A2999 RMK A01 T01530115  RH  078%=      5-min Rain = 0
KCO2 230615Z 15008KT 15/12 A2999 RMK A01 T01540115  RH  077%=      5-min Rain = 0
KCO2 230616Z 15008KT 15/12 A2999 RMK A01 T01540115  RH  077%=      5-min Rain = 0
KCO2 230617Z 15008KT 15/11 A2999 RMK A01 T01540114  RH  077%=      5-min Rain = 0
KCO2 230618Z 15008KT 15/12 A2999 RMK A01 T01540115  RH  077%=      5-min Rain = 0
KCO2 230619Z 15008KT 15/12 A2999 RMK A01 T01540115  RH  077%=      5-min Rain = 0
KCO2 230620Z 15008KT 15/12 A2999 RMK A01 T01540115  RH  077%=      5-min Rain = 0
KCO2 230621Z 15008KT 15/12 A2999 RMK A01 T01540115  RH  077%=      5-min Rain = 0
KCO2 230622Z 15008KT 15/12 A2999 RMK A01 T01540115  RH  078%=      5-min Rain = 0
KCO2 230623Z 15008KT 15/12 A2999 RMK A01 T01540115  RH  078%=      5-min Rain = 0
KCO2 230624Z 15009KT 15/12 A2999 RMK A01 T01540115  RH  078%=      5-min Rain = 0
KCO2 230625Z 15009KT 15/12 A2999 RMK A01 T01530115  RH  078%=      5-min Rain = 0
KCO2 230626Z 15009KT 15/12 A2999 RMK A01 T01530115  RH  078%=      5-min Rain = 0
KCO2 230627Z 15009KT 15/12 A2999 RMK A01 T01530115  RH  078%=      5-min Rain = 0
KCO2 230628Z 15009KT 15/11 A2999 RMK A01 T01520114  RH  078%=      5-min Rain = 0
KCO2 230629Z 15009KT 15/12 A2999 RMK A01 T01520115  RH  078%=      5-min Rain = 0
KCO2 230630Z 15009KT 15/12 A2999 RMK A01 T01520115  RH  078%=      5-min Rain = 0
KCO2 230631Z 15008KT 15/11 A2999 RMK A01 T01520114  RH  078%=      5-min Rain = 0
KCO2 230632Z 15008KT 15/11 A2999 RMK A01 T01510114  RH  078%=      5-min Rain = 0
KCO2 230633Z 15009KT 15/11 A2999 RMK A01 T01510114  RH  079%=      5-min Rain = 0
KCO2 230634Z 15008KT 15/11 A2999 RMK A01 T01510114  RH  079%=      5-min Rain = 0
KCO2 230635Z 15008KT 15/11 A2999 RMK A01 T01500114  RH  079%=      5-min Rain = 0
KCO2 230636Z 15008KT 15/11 A2999 RMK A01 T01500114  RH  079%=      5-min Rain = 0
KCO2 230637Z 15008KT 15/11 A2999 RMK A01 T01500114  RH  079%=      5-min Rain = 0
KCO2 230638Z 15007KT 15/11 A2999 RMK A01 T01500114  RH  079%=      5-min Rain = 0
KCO2 230639Z 15007KT 15/11 A2999 RMK A01 T01490114  RH  079%=      5-min Rain = 0
KCO2 230640Z 15007KT 15/11 A2999 RMK A01 T01490114  RH  080%=      5-min Rain = 0
KCO2 230641Z 15008KT 15/11 A2999 RMK A01 T01490114  RH  080%=      5-min Rain = 0
KCO2 230642Z 15007KT 15/11 A2999 RMK A01 T01490114  RH  080%=      5-min Rain = 0
KCO2 230643Z 15008KT 15/11 A2998 RMK A01 T01490114  RH  080%=      5-min Rain = 0
KCO2 230644Z 15008KT 15/12 A2998 RMK A01 T01490115  RH  080%=      5-min Rain = 0
KCO2 230645Z 15007KT 15/12 A2999 RMK A01 T01490115  RH  080%=      5-min Rain = 0
KCO2 230646Z 15008KT 15/12 A2999 RMK A01 T01490115  RH  080%=      5-min Rain = 0
KCO2 230647Z 15008KT 15/12 A2999 RMK A01 T01490115  RH  080%=      5-min Rain = 0
KCO2 230648Z 15007KT 15/12 A2999 RMK A01 T01490115  RH  080%=      5-min Rain = 0
KCO2 230649Z 15007KT 15/12 A2999 RMK A01 T01500115  RH  080%=      5-min Rain = 0
KCO2 230650Z 15007KT 15/12 A2999 RMK A01 T01500115  RH  080%=      5-min Rain = 0
KCO2 230651Z 15008KT 15/12 A2999 RMK A01 T01490115  RH  080%=      5-min Rain = 0
KCO2 230652Z 15008KT 15/12 A2999 RMK A01 T01490115  RH  080%=      5-min Rain = 0
KCO2 230653Z 15007KT 15/12 A2999 RMK A01 T01490116  RH  080%=      5-min Rain = 0
KCO2 230654Z 15008KT 15/12 A2999 RMK A01 T01500116  RH  080%=      5-min Rain = 0
KCO2 230655Z 15008KT 15/12 A2999 RMK A01 T01500115  RH  080%=      5-min Rain = 0
KCO2 230656Z 15008KT 15/12 A2999 RMK A01 T01500115  RH  080%=      5-min Rain = 0
KCO2 230657Z 15008KT 15/12 A2999 RMK A01 T01500116  RH  080%=      5-min Rain = 0
KCO2 230658Z 16009KT 15/12 A2999 RMK A01 T01500116  RH  080%=      5-min Rain = 0
KCO2 230659Z 16008KT 15/12 A2998 RMK A01 T01510116  RH  080%=      5-min Rain = 0
KCO2 230700Z 16008KT 15/12 A2998 RMK A01 T01510116  RH  079%=      5-min Rain = 0
KCO2 230701Z 16008KT 15/12 A2998 RMK A01 T01510116  RH  079%=      5-min Rain = 0
KCO2 230702Z 15009KT 15/12 A2998 RMK A01 T01520117  RH  080%=      5-min Rain = 0
KCO2 230703Z 16008KT 15/12 A2998 RMK A01 T01510116  RH  080%=      5-min Rain = 0
KCO2 230704Z 16008KT 15/12 A2998 RMK A01 T01520117  RH  080%=      5-min Rain = 0
KCO2 230705Z 16008KT 15/12 A2998 RMK A01 T01510116  RH  080%=      5-min Rain = 0
KCO2 230706Z 16008KT 15/12 A2998 RMK A01 T01510117  RH  080%=      5-min Rain = 0
KCO2 230707Z 16008KT 15/12 A2998 RMK A01 T01510117  RH  080%=      5-min Rain = 0
KCO2 230708Z 16009KT 15/12 A2998 RMK A01 T01510117  RH  080%=      5-min Rain = 0
KCO2 230709Z 16009KT 15/12 A2998 RMK A01 T01520117  RH  080%=      5-min Rain = 0
KCO2 230710Z 16009KT 15/12 A2998 RMK A01 T01530117  RH  079%=      5-min Rain = 0
KCO2 230711Z 16009KT 15/12 A2998 RMK A01 T01530117  RH  079%=      5-min Rain = 0
KCO2 230712Z 17009KT 15/12 A2998 RMK A01 T01530117  RH  079%=      5-min Rain = 0
KCO2 230713Z 16010KT 15/12 A2998 RMK A01 T01530117  RH  079%=      5-min Rain = 0
KCO2 230714Z 16010KT 15/12 A2998 RMK A01 T01540118  RH  079%=      5-min Rain = 0
KCO2 230715Z 16009KT 15/12 A2998 RMK A01 T01540118  RH  079%=      5-min Rain = 0
KCO2 230716Z 17010KT 15/12 A2998 RMK A01 T01540118  RH  079%=      5-min Rain = 0
KCO2 230717Z 16010KT 15/12 A2998 RMK A01 T01540118  RH  079%=      5-min Rain = 0
KCO2 230718Z 16010KT 15/12 A2998 RMK A01 T01540118  RH  079%=      5-min Rain = 0
KCO2 230719Z 16010KT 15/12 A2998 RMK A01 T01540118  RH  079%=      5-min Rain = 0
KCO2 230720Z 17009KT 15/12 A2998 RMK A01 T01540118  RH  079%=      5-min Rain = 0
KCO2 230721Z 16010KT 15/12 A2998 RMK A01 T01540118  RH  079%=      5-min Rain = 0
KCO2 230722Z 16009KT 15/12 A2998 RMK A01 T01540118  RH  079%=      5-min Rain = 0
KCO2 230723Z 16007KT 15/12 A2998 RMK A01 T01540118  RH  079%=      5-min Rain = 0
KCO2 230724Z 17009KT 15/12 A2998 RMK A01 T01530118  RH  080%=      5-min Rain = 0
KCO2 230725Z 16009KT 15/12 A2998 RMK A01 T01530118  RH  080%=      5-min Rain = 0
KCO2 230726Z 16009KT 15/12 A2998 RMK A01 T01530118  RH  080%=      5-min Rain = 0
KCO2 230727Z 16007KT 15/12 A2998 RMK A01 T01530118  RH  080%=      5-min Rain = 0
KCO2 230728Z 17009KT 15/12 A2998 RMK A01 T01530118  RH  080%=      5-min Rain = 0
KCO2 230729Z 17010KT 15/12 A2998 RMK A01 T01530119  RH  080%=      5-min Rain = 0
KCO2 230730Z 17008KT 15/12 A2998 RMK A01 T01530118  RH  080%=      5-min Rain = 0
KCO2 230731Z 17008KT 15/12 A2998 RMK A01 T01530118  RH  080%=      5-min Rain = 0
KCO2 230732Z 17009KT 15/12 A2998 RMK A01 T01530119  RH  080%=      5-min Rain = 0
KCO2 230733Z 17008KT 15/12 A2998 RMK A01 T01530119  RH  080%=      5-min Rain = 0
KCO2 230734Z 17009KT 15/12 A2998 RMK A01 T01530119  RH  080%=      5-min Rain = 0
KCO2 230735Z 17008KT 15/12 A2998 RMK A01 T01530119  RH  080%=      5-min Rain = 0
KCO2 230736Z 17008KT 15/12 A2998 RMK A01 T01530119  RH  080%=      5-min Rain = 0
KCO2 230737Z 17007KT 15/12 A2998 RMK A01 T01520119  RH  080%=      5-min Rain = 0
KCO2 230738Z 17009KT 15/12 A2998 RMK A01 T01520119  RH  081%=      5-min Rain = 0
KCO2 230739Z 17008KT 15/12 A2998 RMK A01 T01520119  RH  081%=      5-min Rain = 0
KCO2 230740Z 17008KT 15/12 A2998 RMK A01 T01520119  RH  081%=      5-min Rain = 0
KCO2 230741Z 17008KT 15/12 A2998 RMK A01 T01520120  RH  081%=      5-min Rain = 0
KCO2 230742Z 16008KT 15/12 A2997 RMK A01 T01520120  RH  081%=      5-min Rain = 0
KCO2 230743Z 16008KT 15/12 A2997 RMK A01 T01530120  RH  081%=      5-min Rain = 0
KCO2 230744Z 17008KT 15/12 A2997 RMK A01 T01520120  RH  081%=      5-min Rain = 0
KCO2 230745Z 16007KT 15/12 A2998 RMK A01 T01520120  RH  081%=      5-min Rain = 0
KCO2 230746Z 17008KT 15/12 A2998 RMK A01 T01520120  RH  081%=      5-min Rain = 0
KCO2 230747Z 17008KT 15/12 A2998 RMK A01 T01520120  RH  081%=      5-min Rain = 0
KCO2 230748Z 17007KT 15/12 A2998 RMK A01 T01520120  RH  081%=      5-min Rain = 0
KCO2 230749Z 17008KT 15/12 A2998 RMK A01 T01520120  RH  081%=      5-min Rain = 0
KCO2 230750Z 17010KT 15/12 A2998 RMK A01 T01520120  RH  081%=      5-min Rain = 0
KCO2 230751Z 17009KT 15/12 A2998 RMK A01 T01530121  RH  081%=      5-min Rain = 0
KCO2 230752Z 17009KT 15/12 A2997 RMK A01 T01530121  RH  081%=      5-min Rain = 0
KCO2 230753Z 17009KT 15/12 A2997 RMK A01 T01530121  RH  081%=      5-min Rain = 0
KCO2 230754Z 16009KT 15/12 A2997 RMK A01 T01530121  RH  081%=      5-min Rain = 0
KCO2 230755Z 16008KT 15/12 A2997 RMK A01 T01530121  RH  081%=      5-min Rain = 0
KCO2 230756Z 16007KT 15/12 A2997 RMK A01 T01530122  RH  082%=      5-min Rain = 0
KCO2 230757Z 16009KT 15/12 A2997 RMK A01 T01520121  RH  082%=      5-min Rain = 0
KCO2 230758Z 16008KT 15/12 A2997 RMK A01 T01520121  RH  082%=      5-min Rain = 0
KCO2 230759Z 16008KT 15/12 A2997 RMK A01 T01520122  RH  082%=      5-min Rain = 0
KCO2 230800Z 16009KT 15/12 A2997 RMK A01 T01520122  RH  082%=      5-min Rain = 0
KCO2 230801Z 16008KT 15/12 A2997 RMK A01 T01520122  RH  082%=      5-min Rain = 0
KCO2 230802Z 16010KT 15/12 A2997 RMK A01 T01520122  RH  082%=      5-min Rain = 0
KCO2 230803Z 16009KT 15/12 A2997 RMK A01 T01510122  RH  082%=      5-min Rain = 0
KCO2 230804Z 16008KT 15/12 A2997 RMK A01 T01510122  RH  082%=      5-min Rain = 0
KCO2 230805Z 16008KT 15/12 A2997 RMK A01 T01510122  RH  083%=      5-min Rain = 0
KCO2 230806Z 16008KT 15/12 A2997 RMK A01 T01510122  RH  083%=      5-min Rain = 0
KCO2 230807Z 16009KT 15/12 A2997 RMK A01 T01510122  RH  083%=      5-min Rain = 0
KCO2 230808Z 16008KT 15/12 A2997 RMK A01 T01510122  RH  083%=      5-min Rain = 0
KCO2 230809Z 16009KT 15/12 A2997 RMK A01 T01500122  RH  083%=      5-min Rain = 0
KCO2 230810Z 16008KT 15/12 A2997 RMK A01 T01510122  RH  083%=      5-min Rain = 0
KCO2 230811Z 16008KT 15/12 A2997 RMK A01 T01510121  RH  083%=      5-min Rain = 0
KCO2 230812Z 16008KT 15/12 A2997 RMK A01 T01510122  RH  083%=      5-min Rain = 0
KCO2 230813Z 16007KT 15/12 A2997 RMK A01 T01510122  RH  082%=      5-min Rain = 0
KCO2 230814Z 16007KT 15/12 A2997 RMK A01 T01510122  RH  083%=      5-min Rain = 0
KCO2 230815Z 17008KT 15/12 A2997 RMK A01 T01510122  RH  083%=      5-min Rain = 0
KCO2 230816Z 16008KT 15/12 A2997 RMK A01 T01510122  RH  083%=      5-min Rain = 0
KCO2 230817Z 16007KT 15/12 A2997 RMK A01 T01510122  RH  083%=      5-min Rain = 0
KCO2 230818Z 16006KT 15/12 A2997 RMK A01 T01510122  RH  083%=      5-min Rain = 0
KCO2 230819Z 17007KT 15/12 A2997 RMK A01 T01510123  RH  083%=      5-min Rain = 0
KCO2 230820Z 16007KT 15/12 A2997 RMK A01 T01510123  RH  083%=      5-min Rain = 0
KCO2 230821Z 16006KT 15/12 A2997 RMK A01 T01510122  RH  083%=      5-min Rain = 0
KCO2 230822Z 17007KT 15/12 A2997 RMK A01 T01500122  RH  083%=      5-min Rain = 0
KCO2 230823Z 16008KT 15/12 A2997 RMK A01 T01500122  RH  083%=      5-min Rain = 0
KCO2 230824Z 17007KT 15/12 A2997 RMK A01 T01500122  RH  083%=      5-min Rain = 0
KCO2 230825Z 16006KT 15/12 A2997 RMK A01 T01500122  RH  083%=      5-min Rain = 0
KCO2 230826Z 17006KT 15/12 A2997 RMK A01 T01500122  RH  083%=      5-min Rain = 0
KCO2 230827Z 17007KT 15/12 A2997 RMK A01 T01500122  RH  083%=      5-min Rain = 0
KCO2 230828Z 17007KT 15/12 A2997 RMK A01 T01490122  RH  084%=      5-min Rain = 0
KCO2 230829Z 17008KT 15/12 A2997 RMK A01 T01490122  RH  084%=      5-min Rain = 0
KCO2 230830Z 17006KT 15/12 A2997 RMK A01 T01490122  RH  084%=      5-min Rain = 0
KCO2 230831Z 17006KT 15/12 A2997 RMK A01 T01490122  RH  084%=      5-min Rain = 0
KCO2 230832Z 17005KT 15/12 A2997 RMK A01 T01490122  RH  084%=      5-min Rain = 0
KCO2 230833Z 17006KT 15/12 A2997 RMK A01 T01480121  RH  084%=      5-min Rain = 0
KCO2 230834Z 17006KT 15/12 A2997 RMK A01 T01480122  RH  084%=      5-min Rain = 0
KCO2 230835Z 16006KT 15/12 A2997 RMK A01 T01470121  RH  084%=      5-min Rain = 0
KCO2 230836Z 17006KT 15/12 A2997 RMK A01 T01470121  RH  084%=      5-min Rain = 0
KCO2 230837Z 16006KT 15/12 A2997 RMK A01 T01470122  RH  085%=      5-min Rain = 0
KCO2 230838Z 17005KT 15/12 A2997 RMK A01 T01470121  RH  084%=      5-min Rain = 0
KCO2 230839Z 17005KT 15/12 A2997 RMK A01 T01470121  RH  084%=      5-min Rain = 0
KCO2 230840Z 17005KT 15/12 A2997 RMK A01 T01460121  RH  085%=      5-min Rain = 0
KCO2 230841Z 16005KT 15/12 A2997 RMK A01 T01460121  RH  085%=      5-min Rain = 0
KCO2 230842Z 17005KT 15/12 A2997 RMK A01 T01450121  RH  085%=      5-min Rain = 0
KCO2 230843Z 18004KT 15/12 A2997 RMK A01 T01450121  RH  085%=      5-min Rain = 0
KCO2 230844Z 17005KT 15/12 A2997 RMK A01 T01450121  RH  085%=      5-min Rain = 0
KCO2 230845Z 17005KT 15/12 A2998 RMK A01 T01450121  RH  085%=      5-min Rain = 0
KCO2 230846Z 17005KT 15/12 A2998 RMK A01 T01450121  RH  085%=      5-min Rain = 0
KCO2 230847Z 17005KT 15/12 A2998 RMK A01 T01450120  RH  085%=      5-min Rain = 0
KCO2 230848Z 17004KT 14/12 A2998 RMK A01 T01440121  RH  086%=      5-min Rain = 0
KCO2 230849Z 17004KT 14/12 A2998 RMK A01 T01440120  RH  086%=      5-min Rain = 0
KCO2 230850Z 17004KT 14/12 A2998 RMK A01 T01430120  RH  086%=      5-min Rain = 0
KCO2 230851Z 17003KT 14/12 A2998 RMK A01 T01430120  RH  086%=      5-min Rain = 0
KCO2 230852Z 18003KT 14/12 A2998 RMK A01 T01420120  RH  086%=      5-min Rain = 0
KCO2 230853Z 18003KT 14/12 A2998 RMK A01 T01420120  RH  086%=      5-min Rain = 0
KCO2 230854Z 17003KT 14/12 A2998 RMK A01 T01420120  RH  086%=      5-min Rain = 0
KCO2 230855Z 17003KT 14/12 A2998 RMK A01 T01410120  RH  087%=      5-min Rain = 0
KCO2 230856Z 18003KT 14/12 A2998 RMK A01 T01410120  RH  087%=      5-min Rain = 0
KCO2 230857Z 17002KT 14/12 A2998 RMK A01 T01410120  RH  087%=      5-min Rain = 0
KCO2 230858Z 18002KT 14/12 A2998 RMK A01 T01410120  RH  087%=      5-min Rain = 0
KCO2 230859Z 17002KT 14/12 A2998 RMK A01 T01400119  RH  087%=      5-min Rain = 0
KCO2 230900Z 17002KT 14/12 A2998 RMK A01 T01400120  RH  087%=      5-min Rain = 0
KCO2 230901Z 17002KT 14/12 A2998 RMK A01 T01400120  RH  088%=      5-min Rain = 0
KCO2 230902Z 17002KT 14/12 A2997 RMK A01 T01400120  RH  088%=      5-min Rain = 0
KCO2 230903Z 17002KT 14/12 A2997 RMK A01 T01400120  RH  088%=      5-min Rain = 0
KCO2 230904Z 17002KT 14/12 A2997 RMK A01 T01400120  RH  088%=      5-min Rain = 0
KCO2 230905Z 17002KT 14/12 A2997 RMK A01 T01390120  RH  088%=      5-min Rain = 0
KCO2 230906Z 17002KT 14/12 A2997 RMK A01 T01400120  RH  088%=      5-min Rain = 0
KCO2 230907Z 17002KT 14/12 A2997 RMK A01 T01390120  RH  088%=      5-min Rain = 0
KCO2 230908Z 17001KT 14/12 A2997 RMK A01 T01390120  RH  088%=      5-min Rain = 0
KCO2 230909Z 17002KT 14/12 A2997 RMK A01 T01390120  RH  088%=      5-min Rain = 0
KCO2 230910Z 18002KT 14/12 A2998 RMK A01 T01390120  RH  088%=      5-min Rain = 0
KCO2 230911Z 18002KT 14/12 A2998 RMK A01 T01390120  RH  089%=      5-min Rain = 0
KCO2 230912Z 17002KT 14/12 A2998 RMK A01 T01380120  RH  088%=      5-min Rain = 0
KCO2 230913Z 17001KT 14/12 A2998 RMK A01 T01380119  RH  088%=      5-min Rain = 0
KCO2 230914Z 18002KT 14/12 A2998 RMK A01 T01380119  RH  089%=      5-min Rain = 0
KCO2 230915Z 17002KT 14/12 A2998 RMK A01 T01380120  RH  089%=      5-min Rain = 0
KCO2 230916Z 18002KT 14/12 A2998 RMK A01 T01380120  RH  089%=      5-min Rain = 0
KCO2 230917Z 18002KT 14/12 A2998 RMK A01 T01370119  RH  089%=      5-min Rain = 0
KCO2 230918Z 17003KT 14/12 A2998 RMK A01 T01370119  RH  089%=      5-min Rain = 0
KCO2 230919Z 17003KT 14/12 A2998 RMK A01 T01380120  RH  089%=      5-min Rain = 0
KCO2 230920Z 17003KT 14/12 A2997 RMK A01 T01390121  RH  089%=      5-min Rain = 0
KCO2 230921Z 17004KT 14/12 A2997 RMK A01 T01390121  RH  089%=      5-min Rain = 0
KCO2 230922Z 17004KT 14/12 A2997 RMK A01 T01390120  RH  088%=      5-min Rain = 0
KCO2 230923Z 16004KT 14/12 A2997 RMK A01 T01390119  RH  087%=      5-min Rain = 0
KCO2 230924Z 17004KT 14/12 A2997 RMK A01 T01380117  RH  087%=      5-min Rain = 0
KCO2 230925Z 17004KT 14/12 A2997 RMK A01 T01370116  RH  087%=      5-min Rain = 0
KCO2 230926Z 17005KT 14/12 A2997 RMK A01 T01350116  RH  088%=      5-min Rain = 0
KCO2 230927Z 17005KT 13/12 A2997 RMK A01 T01340116  RH  088%=      5-min Rain = 0
KCO2 230928Z 17005KT 13/12 A2997 RMK A01 T01330115  RH  089%=      5-min Rain = 0
KCO2 230929Z 17006KT 13/12 A2997 RMK A01 T01320115  RH  089%=      5-min Rain = 0
KCO2 230930Z 17006KT 13/12 A2997 RMK A01 T01310115  RH  090%=      5-min Rain = 0
KCO2 230931Z 17006KT 13/12 A2997 RMK A01 T01310116  RH  090%=      5-min Rain = 0
KCO2 230932Z 17006KT 13/12 A2997 RMK A01 T01310116  RH  091%=      5-min Rain = 0
KCO2 230933Z 17006KT 13/12 A2997 RMK A01 T01310116  RH  091%=      5-min Rain = 0
KCO2 230934Z 17006KT 13/12 A2997 RMK A01 T01310117  RH  091%=      5-min Rain = 0
KCO2 230935Z 17006KT 13/12 A2997 RMK A01 T01300116  RH  091%=      5-min Rain = 0
KCO2 230936Z 17006KT 13/12 A2997 RMK A01 T01300117  RH  091%=      5-min Rain = 0
KCO2 230937Z 17006KT 13/12 A2997 RMK A01 T01300116  RH  091%=      5-min Rain = 0
KCO2 230938Z 17006KT 13/12 A2997 RMK A01 T01300116  RH  091%=      5-min Rain = 0
KCO2 230939Z 16006KT 13/12 A2997 RMK A01 T01290116  RH  092%=      5-min Rain = 0
KCO2 230940Z 17006KT 13/12 A2997 RMK A01 T01290116  RH  092%=      5-min Rain = 0
KCO2 230941Z 16006KT 13/12 A2997 RMK A01 T01290115  RH  092%=      5-min Rain = 0
KCO2 230942Z 16006KT 13/12 A2997 RMK A01 T01280115  RH  092%=      5-min Rain = 0
KCO2 230943Z 16006KT 13/12 A2997 RMK A01 T01280115  RH  092%=      5-min Rain = 0
KCO2 230944Z 16006KT 13/12 A2997 RMK A01 T01270115  RH  092%=      5-min Rain = 0
KCO2 230945Z 16006KT 13/11 A2997 RMK A01 T01270114  RH  092%=      5-min Rain = 0
KCO2 230946Z 16006KT 13/11 A2997 RMK A01 T01260114  RH  092%=      5-min Rain = 0
KCO2 230947Z 16006KT 13/11 A2997 RMK A01 T01250114  RH  092%=      5-min Rain = 0
KCO2 230948Z 16006KT 13/11 A2997 RMK A01 T01250114  RH  093%=      5-min Rain = 0
KCO2 230949Z 16006KT 13/11 A2997 RMK A01 T01250114  RH  093%=      5-min Rain = 0
KCO2 230950Z 17006KT 13/11 A2997 RMK A01 T01250114  RH  093%=      5-min Rain = 0
KCO2 230951Z 17005KT 13/11 A2997 RMK A01 T01250114  RH  093%=      5-min Rain = 0
KCO2 230952Z 17005KT 13/11 A2997 RMK A01 T01250114  RH  093%=      5-min Rain = 0
KCO2 230953Z 17005KT 13/11 A2997 RMK A01 T01250114  RH  093%=      5-min Rain = 0
KCO2 230954Z 17005KT 12/11 A2997 RMK A01 T01240114  RH  093%=      5-min Rain = 0
KCO2 230955Z 17005KT 12/11 A2997 RMK A01 T01240114  RH  093%=      5-min Rain = 0
KCO2 230956Z 17005KT 12/11 A2997 RMK A01 T01240114  RH  093%=      5-min Rain = 0
KCO2 230957Z 17005KT 12/11 A2997 RMK A01 T01240114  RH  094%=      5-min Rain = 0
KCO2 230958Z 17005KT 12/11 A2997 RMK A01 T01230114  RH  094%=      5-min Rain = 0
KCO2 230959Z 17005KT 12/11 A2997 RMK A01 T01230113  RH  094%=      5-min Rain = 0
KCO2 231000Z 17005KT 12/11 A2997 RMK A01 T01230113  RH  094%=      5-min Rain = 0
KCO2 231001Z 17004KT 12/11 A2997 RMK A01 T01220113  RH  094%=      5-min Rain = 0
KCO2 231002Z 16004KT 12/11 A2997 RMK A01 T01220113  RH  094%=      5-min Rain = 0
KCO2 231003Z 16004KT 12/11 A2997 RMK A01 T01220113  RH  094%=      5-min Rain = 0
KCO2 231004Z 16004KT 12/11 A2997 RMK A01 T01220113  RH  094%=      5-min Rain = 0
KCO2 231005Z 16004KT 12/11 A2997 RMK A01 T01220113  RH  094%=      5-min Rain = 0
KCO2 231006Z 16004KT 12/11 A2997 RMK A01 T01220113  RH  094%=      5-min Rain = 0
KCO2 231007Z 16004KT 12/11 A2997 RMK A01 T01220113  RH  094%=      5-min Rain = 0
KCO2 231008Z 16004KT 12/11 A2997 RMK A01 T01220113  RH  094%=      5-min Rain = 0
KCO2 231009Z 16004KT 12/11 A2997 RMK A01 T01220113  RH  094%=      5-min Rain = 0
KCO2 231010Z 15004KT 12/11 A2997 RMK A01 T01220113  RH  094%=      5-min Rain = 0
KCO2 231011Z 15004KT 12/11 A2997 RMK A01 T01220113  RH  094%=      5-min Rain = 0
KCO2 231012Z 15004KT 12/11 A2997 RMK A01 T01220113  RH  095%=      5-min Rain = 0
KCO2 231013Z 14004KT 12/11 A2997 RMK A01 T01210113  RH  095%=      5-min Rain = 0
KCO2 231014Z 14004KT 12/11 A2997 RMK A01 T01220113  RH  095%=      5-min Rain = 0
KCO2 231015Z 14004KT 12/11 A2997 RMK A01 T01220113  RH  095%=      5-min Rain = 0
KCO2 231016Z 14004KT 12/11 A2997 RMK A01 T01210112  RH  094%=      5-min Rain = 0
KCO2 231017Z 13005KT 12/11 A2997 RMK A01 T01200112  RH  094%=      5-min Rain = 0
KCO2 231018Z 13005KT 12/11 A2997 RMK A01 T01200111  RH  094%=      5-min Rain = 0
KCO2 231019Z 13005KT 12/11 A2997 RMK A01 T01190111  RH  094%=      5-min Rain = 0
KCO2 231020Z 13005KT 12/11 A2997 RMK A01 T01190110  RH  094%=      5-min Rain = 0
KCO2 231021Z 13005KT 12/11 A2997 RMK A01 T01180109  RH  094%=      5-min Rain = 0
KCO2 231022Z 13005KT 12/11 A2997 RMK A01 T01180109  RH  095%=      5-min Rain = 0
KCO2 231023Z 13006KT 12/11 A2997 RMK A01 T01180110  RH  095%=      5-min Rain = 0
KCO2 231024Z 12006KT 12/11 A2997 RMK A01 T01180109  RH  095%=      5-min Rain = 0
KCO2 231025Z 12006KT 12/11 A2997 RMK A01 T01170109  RH  095%=      5-min Rain = 0
KCO2 231026Z 12006KT 12/11 A2997 RMK A01 T01170109  RH  095%=      5-min Rain = 0
KCO2 231027Z 12007KT 12/11 A2997 RMK A01 T01170110  RH  095%=      5-min Rain = 0
KCO2 231028Z 12007KT 12/11 A2997 RMK A01 T01170110  RH  095%=      5-min Rain = 0
KCO2 231029Z 13007KT 12/11 A2997 RMK A01 T01180111  RH  095%=      5-min Rain = 0
KCO2 231030Z 13007KT 12/11 A2997 RMK A01 T01200113  RH  096%=      5-min Rain = 0
KCO2 231031Z 13007KT 12/11 A2997 RMK A01 T01210114  RH  096%=      5-min Rain = 0
KCO2 231032Z 13007KT 12/12 A2997 RMK A01 T01220115  RH  096%=      5-min Rain = 0
KCO2 231033Z 13007KT 12/12 A2997 RMK A01 T01220115  RH  095%=      5-min Rain = 0
KCO2 231034Z 13006KT 12/12 A2997 RMK A01 T01230115  RH  095%=      5-min Rain = 0
KCO2 231035Z 13006KT 12/12 A2997 RMK A01 T01230115  RH  095%=      5-min Rain = 0
KCO2 231036Z 12006KT 12/12 A2997 RMK A01 T01230115  RH  095%=      5-min Rain = 0
KCO2 231037Z 13006KT 12/12 A2997 RMK A01 T01230115  RH  095%=      5-min Rain = 0
KCO2 231038Z 13005KT 12/12 A2997 RMK A01 T01230115  RH  095%=      5-min Rain = 0
KCO2 231039Z 13005KT 12/11 A2997 RMK A01 T01230114  RH  095%=      5-min Rain = 0
KCO2 231040Z 13005KT 12/11 A2997 RMK A01 T01230114  RH  095%=      5-min Rain = 0
KCO2 231041Z 13005KT 12/11 A2997 RMK A01 T01230114  RH  095%=      5-min Rain = 0
KCO2 231042Z 13005KT 12/12 A2997 RMK A01 T01230115  RH  095%=      5-min Rain = 0
KCO2 231043Z 13005KT 12/12 A2997 RMK A01 T01230115  RH  095%=      5-min Rain = 0
KCO2 231044Z 13005KT 12/11 A2997 RMK A01 T01230114  RH  094%=      5-min Rain = 0
KCO2 231045Z 14004KT 12/12 A2997 RMK A01 T01230115  RH  094%=      5-min Rain = 0
KCO2 231046Z 14004KT 12/11 A2997 RMK A01 T01230114  RH  094%=      5-min Rain = 0
KCO2 231047Z 14005KT 12/11 A2997 RMK A01 T01230114  RH  095%=      5-min Rain = 0
KCO2 231048Z 14005KT 12/12 A2997 RMK A01 T01230115  RH  095%=      5-min Rain = 0
KCO2 231049Z 14005KT 12/12 A2997 RMK A01 T01230115  RH  095%=      5-min Rain = 0
KCO2 231050Z 14005KT 12/12 A2997 RMK A01 T01240116  RH  095%=      5-min Rain = 0
KCO2 231051Z 14005KT 12/12 A2997 RMK A01 T01240116  RH  095%=      5-min Rain = 0
KCO2 231052Z 14006KT 12/12 A2997 RMK A01 T01240115  RH  094%=      5-min Rain = 0
KCO2 231053Z 14006KT 12/12 A2997 RMK A01 T01240115  RH  094%=      5-min Rain = 0
KCO2 231054Z 14006KT 12/11 A2997 RMK A01 T01240114  RH  094%=      5-min Rain = 0
KCO2 231055Z 15006KT 12/11 A2997 RMK A01 T01230114  RH  094%=      5-min Rain = 0
KCO2 231056Z 15006KT 12/12 A2997 RMK A01 T01240115  RH  094%=      5-min Rain = 0
KCO2 231057Z 14006KT 12/12 A2997 RMK A01 T01230115  RH  094%=      5-min Rain = 0
KCO2 231058Z 15006KT 12/12 A2997 RMK A01 T01240115  RH  094%=      5-min Rain = 0
KCO2 231059Z 15005KT 12/12 A2997 RMK A01 T01240115  RH  094%=      5-min Rain = 0
KCO2 231100Z 15005KT 12/12 A2997 RMK A01 T01230115  RH  094%=      5-min Rain = 0
KCO2 231101Z 15005KT 12/12 A2997 RMK A01 T01240115  RH  094%=      5-min Rain = 0
KCO2 231102Z 15005KT 12/11 A2997 RMK A01 T01230114  RH  094%=      5-min Rain = 0
KCO2 231103Z 15005KT 12/11 A2997 RMK A01 T01230114  RH  094%=      5-min Rain = 0
KCO2 231104Z 15005KT 12/11 A2997 RMK A01 T01220114  RH  094%=      5-min Rain = 0
KCO2 231105Z 15005KT 12/11 A2997 RMK A01 T01220113  RH  094%=      5-min Rain = 0
KCO2 231106Z 16006KT 12/11 A2997 RMK A01 T01220113  RH  095%=      5-min Rain = 0
KCO2 231107Z 16006KT 12/11 A2997 RMK A01 T01220113  RH  095%=      5-min Rain = 0
KCO2 231108Z 16006KT 12/11 A2997 RMK A01 T01210113  RH  095%=      5-min Rain = 0
KCO2 231109Z 16006KT 12/11 A2997 RMK A01 T01210113  RH  095%=      5-min Rain = 0
KCO2 231110Z 16006KT 12/11 A2997 RMK A01 T01200112  RH  095%=      5-min Rain = 0
KCO2 231111Z 16006KT 12/11 A2997 RMK A01 T01200112  RH  095%=      5-min Rain = 0
KCO2 231112Z 16006KT 12/11 A2997 RMK A01 T01190111  RH  095%=      5-min Rain = 0
KCO2 231113Z 16006KT 12/11 A2997 RMK A01 T01190111  RH  095%=      5-min Rain = 0
KCO2 231114Z 16006KT 12/11 A2997 RMK A01 T01190111  RH  095%=      5-min Rain = 0
KCO2 231115Z 16006KT 12/11 A2997 RMK A01 T01190111  RH  095%=      5-min Rain = 0
KCO2 231116Z 16005KT 12/11 A2997 RMK A01 T01180111  RH  095%=      5-min Rain = 0
KCO2 231117Z 16005KT 12/11 A2997 RMK A01 T01180110  RH  095%=      5-min Rain = 0
KCO2 231118Z 16005KT 12/11 A2997 RMK A01 T01170110  RH  095%=      5-min Rain = 0
KCO2 231119Z 16005KT 12/11 A2997 RMK A01 T01170110  RH  095%=      5-min Rain = 0
KCO2 231120Z 16005KT 12/11 A2997 RMK A01 T01170110  RH  095%=      5-min Rain = 0
KCO2 231121Z 16005KT 12/11 A2997 RMK A01 T01160109  RH  096%=      5-min Rain = 0
KCO2 231122Z 16005KT 12/11 A2997 RMK A01 T01160110  RH  096%=      5-min Rain = 0
KCO2 231123Z 16005KT 12/11 A2997 RMK A01 T01160109  RH  096%=      5-min Rain = 0
KCO2 231124Z 16005KT 12/11 A2997 RMK A01 T01160109  RH  096%=      5-min Rain = 0
KCO2 231125Z 16005KT 12/11 A2997 RMK A01 T01160109  RH  096%=      5-min Rain = 0
KCO2 231126Z 16004KT 12/11 A2997 RMK A01 T01150109  RH  096%=      5-min Rain = 0
KCO2 231127Z 16004KT 12/11 A2997 RMK A01 T01150109  RH  096%=      5-min Rain = 0
KCO2 231128Z 16004KT 12/11 A2997 RMK A01 T01150109  RH  096%=      5-min Rain = 0
KCO2 231129Z 16004KT 12/11 A2997 RMK A01 T01150110  RH  096%=      5-min Rain = 0
KCO2 231130Z 15003KT 12/11 A2998 RMK A01 T01150110  RH  096%=      5-min Rain = 0
KCO2 231131Z 12003KT 12/11 A2998 RMK A01 T01150110  RH  096%=      5-min Rain = 0
KCO2 231132Z 12002KT 12/11 A2998 RMK A01 T01150110  RH  097%=      5-min Rain = 0
KCO2 231133Z 10001KT 12/11 A2998 RMK A01 T01150110  RH  097%=      5-min Rain = 0
KCO2 231134Z 09001KT 11/11 A2998 RMK A01 T01140109  RH  097%=      5-min Rain = 0
KCO2 231135Z 07001KT 11/11 A2998 RMK A01 T01140109  RH  097%=      5-min Rain = 0
KCO2 231136Z 07001KT 11/11 A2998 RMK A01 T01140109  RH  097%=      5-min Rain = 0
KCO2 231137Z 04001KT 11/11 A2998 RMK A01 T01140109  RH  097%=      5-min Rain = 0
KCO2 231138Z 03002KT 11/11 A2998 RMK A01 T01140109  RH  097%=      5-min Rain = 0
KCO2 231139Z 02002KT 11/11 A2998 RMK A01 T01130109  RH  097%=      5-min Rain = 0
KCO2 231140Z 15003KT 11/11 A2998 RMK A01 T01130109  RH  097%=      5-min Rain = 0
KCO2 231141Z 15003KT 11/11 A2998 RMK A01 T01140109  RH  097%=      5-min Rain = 0
KCO2 231142Z 15003KT 11/11 A2998 RMK A01 T01140110  RH  097%=      5-min Rain = 0
KCO2 231143Z 15003KT 12/11 A2998 RMK A01 T01150111  RH  097%=      5-min Rain = 0
KCO2 231144Z 15003KT 12/11 A2998 RMK A01 T01160112  RH  097%=      5-min Rain = 0
KCO2 231145Z 15003KT 12/11 A2998 RMK A01 T01170113  RH  097%=      5-min Rain = 0
KCO2 231146Z 14003KT 12/11 A2998 RMK A01 T01180114  RH  097%=      5-min Rain = 0
KCO2 231147Z 14002KT 12/11 A2998 RMK A01 T01180114  RH  097%=      5-min Rain = 0
KCO2 231148Z 14002KT 12/11 A2998 RMK A01 T01180114  RH  097%=      5-min Rain = 0
KCO2 231149Z 14002KT 12/11 A2998 RMK A01 T01180114  RH  097%=      5-min Rain = 0
KCO2 231150Z 13002KT 12/11 A2998 RMK A01 T01180113  RH  097%=      5-min Rain = 0
KCO2 231151Z 13002KT 12/11 A2998 RMK A01 T01170113  RH  097%=      5-min Rain = 0
KCO2 231152Z 13002KT 12/11 A2998 RMK A01 T01170112  RH  097%=      5-min Rain = 0
KCO2 231153Z 14002KT 12/11 A2998 RMK A01 T01170112  RH  097%=      5-min Rain = 0
KCO2 231154Z 15002KT 12/11 A2998 RMK A01 T01170112  RH  097%=      5-min Rain = 0
KCO2 231155Z 14002KT 12/11 A2998 RMK A01 T01170113  RH  097%=      5-min Rain = 0
KCO2 231156Z 14002KT 12/11 A2998 RMK A01 T01170113  RH  097%=      5-min Rain = 0
KCO2 231157Z 15002KT 12/11 A2999 RMK A01 T01170113  RH  097%=      5-min Rain = 0
KCO2 231158Z 14002KT 12/11 A2999 RMK A01 T01180114  RH  097%=      5-min Rain = 0
KCO2 231159Z 15002KT 12/12 A2999 RMK A01 T01190115  RH  097%=      5-min Rain = 0
KCO2 231200Z 15002KT 12/12 A2999 RMK A01 T01190115  RH  097%=      5-min Rain = 0
KCO2 231201Z 15002KT 12/12 A2999 RMK A01 T01200115  RH  097%=      5-min Rain = 0
KCO2 231202Z 15002KT 12/12 A2999 RMK A01 T01210117  RH  097%=      5-min Rain = 0
KCO2 231203Z 16002KT 12/12 A2999 RMK A01 T01210116  RH  097%=      5-min Rain = 0
KCO2 231204Z 15001KT 12/12 A2999 RMK A01 T01210117  RH  097%=      5-min Rain = 0
KCO2 231205Z 15001KT 12/12 A2999 RMK A01 T01210117  RH  097%=      5-min Rain = 0
KCO2 231206Z 16001KT 12/12 A2999 RMK A01 T01210117  RH  097%=      5-min Rain = 0
KCO2 231207Z 17001KT 12/12 A2999 RMK A01 T01210117  RH  097%=      5-min Rain = 0
KCO2 231208Z 16002KT 12/12 A2999 RMK A01 T01220117  RH  097%=      5-min Rain = 0
KCO2 231209Z 17002KT 12/12 A2999 RMK A01 T01220117  RH  097%=      5-min Rain = 0
KCO2 231210Z 17002KT 12/12 A2999 RMK A01 T01220118  RH  097%=      5-min Rain = 0
KCO2 231211Z 16001KT 12/12 A2999 RMK A01 T01220118  RH  097%=      5-min Rain = 0
KCO2 231212Z 17001KT 12/12 A2999 RMK A01 T01230119  RH  097%=      5-min Rain = 0
KCO2 231213Z 17001KT 12/12 A2999 RMK A01 T01230119  RH  097%=      5-min Rain = 0
KCO2 231214Z 17001KT 12/12 A2999 RMK A01 T01230119  RH  097%=      5-min Rain = 0
KCO2 231215Z 17001KT 12/12 A2999 RMK A01 T01240119  RH  097%=      5-min Rain = 0
KCO2 231216Z 18001KT 12/12 A2999 RMK A01 T01240119  RH  097%=      5-min Rain = 0
KCO2 231217Z 19001KT 12/12 A2999 RMK A01 T01240119  RH  097%=      5-min Rain = 0
KCO2 231218Z 19001KT 12/12 A2999 RMK A01 T01240119  RH  097%=      5-min Rain = 0
KCO2 231219Z 19001KT 12/12 A2999 RMK A01 T01240119  RH  097%=      5-min Rain = 0
KCO2 231220Z 21001KT 12/12 A30 RMK A01 T01240119  RH  097%=      5-min Rain = 0
KCO2 231221Z 21001KT 12/12 A30 RMK A01 T01240119  RH  097%=      5-min Rain = 0
KCO2 231222Z 23001KT 13/12 A30 RMK A01 T01250120  RH  097%=      5-min Rain = 0
KCO2 231223Z 24001KT 13/12 A30 RMK A01 T01260120  RH  097%=      5-min Rain = 0
KCO2 231224Z 24001KT 13/12 A30 RMK A01 T01250120  RH  096%=      5-min Rain = 0
KCO2 231225Z 24001KT 13/12 A30 RMK A01 T01250120  RH  096%=      5-min Rain = 0
KCO2 231226Z 24001KT 13/12 A30 RMK A01 T01250119  RH  096%=      5-min Rain = 0
KCO2 231227Z 24001KT 13/12 A30 RMK A01 T01250119  RH  096%=      5-min Rain = 0
KCO2 231228Z 24001KT 13/12 A30 RMK A01 T01250119  RH  096%=      5-min Rain = 0
KCO2 231229Z 25001KT 13/12 A30 RMK A01 T01250119  RH  096%=      5-min Rain = 0
KCO2 231230Z 25001KT 12/12 A30 RMK A01 T01240118  RH  096%=      5-min Rain = 0
KCO2 231231Z 25001KT 12/12 A30 RMK A01 T01240118  RH  096%=      5-min Rain = 0
KCO2 231232Z 25001KT 12/12 A30 RMK A01 T01240118  RH  096%=      5-min Rain = 0
KCO2 231233Z 25002KT 12/12 A30 RMK A01 T01240118  RH  096%=      5-min Rain = 0
KCO2 231234Z 26002KT 12/12 A30 RMK A01 T01240118  RH  096%=      5-min Rain = 0
KCO2 231235Z 26002KT 12/12 A30 RMK A01 T01240118  RH  096%=      5-min Rain = 0
KCO2 231236Z 25002KT 12/12 A30 RMK A01 T01240118  RH  096%=      5-min Rain = 0
KCO2 231237Z 25002KT 12/12 A30 RMK A01 T01240118  RH  096%=      5-min Rain = 0
KCO2 231238Z 25002KT 12/12 A30 RMK A01 T01240118  RH  096%=      5-min Rain = 0
KCO2 231239Z 25002KT 12/12 A30 RMK A01 T01240118  RH  096%=      5-min Rain = 0
KCO2 231240Z 24002KT 13/12 A3001 RMK A01 T01250119  RH  096%=      5-min Rain = 0
KCO2 231241Z 24003KT 13/12 A3001 RMK A01 T01250119  RH  096%=      5-min Rain = 0
KCO2 231242Z 25003KT 13/12 A3001 RMK A01 T01250119  RH  096%=      5-min Rain = 0
KCO2 231243Z 25003KT 13/12 A3001 RMK A01 T01250119  RH  096%=      5-min Rain = 0
KCO2 231244Z 25003KT 13/12 A3001 RMK A01 T01250120  RH  096%=      5-min Rain = 0
KCO2 231245Z 25003KT 13/12 A3001 RMK A01 T01260120  RH  096%=      5-min Rain = 0
KCO2 231246Z 25003KT 13/12 A3001 RMK A01 T01260120  RH  096%=      5-min Rain = 0
KCO2 231247Z 26003KT 13/12 A3001 RMK A01 T01260120  RH  096%=      5-min Rain = 0
KCO2 231248Z 26003KT 13/12 A3001 RMK A01 T01260120  RH  096%=      5-min Rain = 0
KCO2 231249Z 26003KT 13/12 A3001 RMK A01 T01260120  RH  096%=      5-min Rain = 0
KCO2 231250Z 26003KT 13/12 A3001 RMK A01 T01260120  RH  096%=      5-min Rain = 0
KCO2 231251Z 28003KT 13/12 A3001 RMK A01 T01260120  RH  096%=      5-min Rain = 0
KCO2 231252Z 29004KT 13/12 A3002 RMK A01 T01260120  RH  096%=      5-min Rain = 0
KCO2 231253Z 29005KT 13/12 A3002 RMK A01 T01260120  RH  096%=      5-min Rain = 0
KCO2 231254Z 29005KT 13/12 A3002 RMK A01 T01260120  RH  096%=      5-min Rain = 0
KCO2 231255Z 30005KT 13/12 A3002 RMK A01 T01260120  RH  096%=      5-min Rain = 0
KCO2 231256Z 30006KT 13/12 A3002 RMK A01 T01250119  RH  096%=      5-min Rain = 0
KCO2 231257Z 30005KT 13/12 A3002 RMK A01 T01250119  RH  096%=      5-min Rain = 0
KCO2 231258Z 30005KT 13/12 A3002 RMK A01 T01250119  RH  096%=      5-min Rain = 0
KCO2 231259Z 31005KT 13/12 A3002 RMK A01 T01250120  RH  096%=      5-min Rain = 0
KCO2 231300Z 31005KT 13/12 A3002 RMK A01 T01250119  RH  096%=      5-min Rain = 0
KCO2 231301Z 31006KT 13/12 A3002 RMK A01 T01250119  RH  096%=      5-min Rain = 0
KCO2 231302Z 32006KT 13/12 A3002 RMK A01 T01250119  RH  096%=      5-min Rain = 0
KCO2 231303Z 32006KT 13/12 A3002 RMK A01 T01250120  RH  096%=      5-min Rain = 0
KCO2 231304Z 32006KT 13/12 A3002 RMK A01 T01260120  RH  096%=      5-min Rain = 0
KCO2 231305Z 32006KT 13/12 A3002 RMK A01 T01250120  RH  096%=      5-min Rain = 0
KCO2 231306Z 32005KT 13/12 A3002 RMK A01 T01260120  RH  096%=      5-min Rain = 0
KCO2 231307Z 31004KT 13/12 A3002 RMK A01 T01260120  RH  096%=      5-min Rain = 0
KCO2 231308Z 31005KT 13/12 A3002 RMK A01 T01260121  RH  096%=      5-min Rain = 0
KCO2 231309Z 30005KT 13/12 A3003 RMK A01 T01270121  RH  096%=      5-min Rain = 0
KCO2 231310Z 30005KT 13/12 A3003 RMK A01 T01270121  RH  096%=      5-min Rain = 0
KCO2 231311Z 30005KT 13/12 A3003 RMK A01 T01280122  RH  096%=      5-min Rain = 0
KCO2 231312Z 30005KT 13/12 A3003 RMK A01 T01280122  RH  096%=      5-min Rain = 0
KCO2 231313Z 31006KT 13/12 A3003 RMK A01 T01280122  RH  096%=      5-min Rain = 0
KCO2 231314Z 31006KT 13/12 A3003 RMK A01 T01290123  RH  096%=      5-min Rain = 0
KCO2 231315Z 31006KT 13/12 A3003 RMK A01 T01290123  RH  096%=      5-min Rain = 0
KCO2 231316Z 32005KT 13/12 A3003 RMK A01 T01290123  RH  096%=      5-min Rain = 0
KCO2 231317Z 32005KT 13/12 A3003 RMK A01 T01300123  RH  096%=      5-min Rain = 0
KCO2 231318Z 32005KT 13/12 A3003 RMK A01 T01300124  RH  096%=      5-min Rain = 0
KCO2 231319Z 32004KT 13/12 A3003 RMK A01 T01300124  RH  096%=      5-min Rain = 0
KCO2 231320Z 33004KT 13/12 A3003 RMK A01 T01310124  RH  096%=      5-min Rain = 0
KCO2 231321Z 33004KT 13/12 A3003 RMK A01 T01310124  RH  096%=      5-min Rain = 0
KCO2 231322Z 33004KT 13/12 A3003 RMK A01 T01310124  RH  096%=      5-min Rain = 0
KCO2 231323Z 32004KT 13/12 A3003 RMK A01 T01310124  RH  095%=      5-min Rain = 0
KCO2 231324Z 33003KT 13/12 A3003 RMK A01 T01310124  RH  095%=      5-min Rain = 0
KCO2 231325Z 34004KT 13/12 A3003 RMK A01 T01310124  RH  095%=      5-min Rain = 0
KCO2 231326Z 35004KT 13/12 A3003 RMK A01 T01310124  RH  095%=      5-min Rain = 0
KCO2 231327Z 35004KT 13/12 A3003 RMK A01 T01310124  RH  095%=      5-min Rain = 0
KCO2 231328Z 34003KT 13/12 A3003 RMK A01 T01310124  RH  095%=      5-min Rain = 0
KCO2 231329Z 33004KT 13/12 A3003 RMK A01 T01310124  RH  095%=      5-min Rain = 0
KCO2 231330Z 33004KT 13/12 A3003 RMK A01 T01320124  RH  095%=      5-min Rain = 0
KCO2 231331Z 32003KT 13/12 A3003 RMK A01 T01320124  RH  095%=      5-min Rain = 0
KCO2 231332Z 32002KT 13/12 A3003 RMK A01 T01320124  RH  095%=      5-min Rain = 0
KCO2 231333Z 31002KT 13/12 A3003 RMK A01 T01320124  RH  095%=      5-min Rain = 0
KCO2 231334Z 30002KT 13/12 A3003 RMK A01 T01320124  RH  095%=      5-min Rain = 0
KCO2 231335Z 29002KT 13/13 A3003 RMK A01 T01330125  RH  095%=      5-min Rain = 0
KCO2 231336Z 30002KT 13/13 A3003 RMK A01 T01330125  RH  095%=      5-min Rain = 0
KCO2 231337Z 30002KT 13/13 A3003 RMK A01 T01330125  RH  095%=      5-min Rain = 0
KCO2 231338Z 28002KT 13/13 A3003 RMK A01 T01340126  RH  094%=      5-min Rain = 0
KCO2 231339Z 27001KT 14/13 A3003 RMK A01 T01350126  RH  094%=      5-min Rain = 0
KCO2 231340Z 26001KT 14/13 A3003 RMK A01 T01350126  RH  094%=      5-min Rain = 0
KCO2 231341Z 26003KT 14/13 A3003 RMK A01 T01360126  RH  094%=      5-min Rain = 0
KCO2 231342Z 25003KT 14/13 A3003 RMK A01 T01360126  RH  094%=      5-min Rain = 0
KCO2 231343Z 25002KT 14/13 A3003 RMK A01 T01370127  RH  094%=      5-min Rain = 0
KCO2 231344Z 26003KT 14/13 A3003 RMK A01 T01370127  RH  094%=      5-min Rain = 0
KCO2 231345Z 24003KT 14/13 A3003 RMK A01 T01370127  RH  093%=      5-min Rain = 0
KCO2 231346Z 23003KT 14/13 A3003 RMK A01 T01380127  RH  093%=      5-min Rain = 0
KCO2 231347Z 23002KT 14/13 A3003 RMK A01 T01380127  RH  093%=      5-min Rain = 0
KCO2 231348Z 22003KT 14/13 A3003 RMK A01 T01380128  RH  093%=      5-min Rain = 0
KCO2 231349Z 23003KT 14/13 A3003 RMK A01 T01390128  RH  093%=      5-min Rain = 0
KCO2 231350Z 24002KT 14/13 A3003 RMK A01 T01390128  RH  093%=      5-min Rain = 0
KCO2 231351Z 24003KT 14/13 A3004 RMK A01 T01400129  RH  093%=      5-min Rain = 0
KCO2 231352Z 24003KT 14/13 A3004 RMK A01 T01400129  RH  093%=      5-min Rain = 0
KCO2 231353Z 23003KT 14/13 A3004 RMK A01 T01410129  RH  093%=      5-min Rain = 0
KCO2 231354Z 22003KT 14/13 A3004 RMK A01 T01420129  RH  092%=      5-min Rain = 0
KCO2 231355Z 22003KT 14/13 A3004 RMK A01 T01420129  RH  092%=      5-min Rain = 0
KCO2 231356Z 22003KT 14/13 A3004 RMK A01 T01420129  RH  091%=      5-min Rain = 0
KCO2 231357Z 21004KT 14/13 A3004 RMK A01 T01430129  RH  091%=      5-min Rain = 0
KCO2 231358Z 21004KT 14/13 A3004 RMK A01 T01430129  RH  091%=      5-min Rain = 0
KCO2 231359Z 21004KT 14/13 A3004 RMK A01 T01430128  RH  091%=      5-min Rain = 0
KCO2 231400Z 22004KT 14/13 A3004 RMK A01 T01440128  RH  091%=      5-min Rain = 0
KCO2 231401Z 22003KT 14/13 A3004 RMK A01 T01440129  RH  091%=      5-min Rain = 0
KCO2 231402Z 21003KT 15/13 A3004 RMK A01 T01450129  RH  090%=      5-min Rain = 0
KCO2 231403Z 21003KT 15/13 A3004 RMK A01 T01450129  RH  090%=      5-min Rain = 0
KCO2 231404Z 22003KT 15/13 A3004 RMK A01 T01450129  RH  090%=      5-min Rain = 0
KCO2 231405Z 21004KT 15/13 A3004 RMK A01 T01460129  RH  090%=      5-min Rain = 0
KCO2 231406Z 21004KT 15/13 A3004 RMK A01 T01460129  RH  089%=      5-min Rain = 0
KCO2 231407Z 21003KT 15/13 A3004 RMK A01 T01470129  RH  089%=      5-min Rain = 0
KCO2 231408Z 22003KT 15/13 A3004 RMK A01 T01480129  RH  088%=      5-min Rain = 0
KCO2 231409Z 21004KT 15/13 A3004 RMK A01 T01500130  RH  088%=      5-min Rain = 0
KCO2 231410Z 21004KT 15/13 A3004 RMK A01 T01510131  RH  088%=      5-min Rain = 0
KCO2 231411Z 22003KT 15/13 A3004 RMK A01 T01520131  RH  087%=      5-min Rain = 0
KCO2 231412Z 23003KT 15/13 A3004 RMK A01 T01530131  RH  087%=      5-min Rain = 0
KCO2 231413Z 23004KT 16/13 A3004 RMK A01 T01550132  RH  086%=      5-min Rain = 0
KCO2 231414Z 24004KT 16/13 A3004 RMK A01 T01560132  RH  086%=      5-min Rain = 0
KCO2 231415Z 24005KT 16/13 A3004 RMK A01 T01570131  RH  084%=      5-min Rain = 0
KCO2 231416Z 24004KT 16/13 A3004 RMK A01 T01580131  RH  084%=      5-min Rain = 0
KCO2 231417Z 24005KT 16/13 A3004 RMK A01 T01580131  RH  084%=      5-min Rain = 0
KCO2 231418Z 25004KT 16/13 A3004 RMK A01 T01570130  RH  084%=      5-min Rain = 0
KCO2 231419Z 25006KT 16/13 A3004 RMK A01 T01570130  RH  084%=      5-min Rain = 0
KCO2 231420Z 24006KT 16/13 A3004 RMK A01 T01570130  RH  084%=      5-min Rain = 0
KCO2 231421Z 24005KT 16/13 A3004 RMK A01 T01570130  RH  084%=      5-min Rain = 0
KCO2 231422Z 24005KT 16/13 A3004 RMK A01 T01570131  RH  085%=      5-min Rain = 0
KCO2 231423Z 24005KT 16/13 A3004 RMK A01 T01570131  RH  084%=      5-min Rain = 0
KCO2 231424Z 24006KT 16/13 A3004 RMK A01 T01570131  RH  084%=      5-min Rain = 0
KCO2 231425Z 24006KT 16/13 A3004 RMK A01 T01570131  RH  084%=      5-min Rain = 0
KCO2 231426Z 24007KT 16/13 A3004 RMK A01 T01580130  RH  084%=      5-min Rain = 0
KCO2 231427Z 24006KT 16/13 A3004 RMK A01 T01570130  RH  084%=      5-min Rain = 0
KCO2 231428Z 22005KT 16/13 A3004 RMK A01 T01570130  RH  084%=      5-min Rain = 0
KCO2 231429Z 23006KT 16/13 A3004 RMK A01 T01560130  RH  084%=      5-min Rain = 0
KCO2 231430Z 23005KT 16/13 A3005 RMK A01 T01560129  RH  084%=      5-min Rain = 0
KCO2 231431Z 24005KT 16/13 A3005 RMK A01 T01550129  RH  085%=      5-min Rain = 0
KCO2 231432Z 23004KT 16/13 A3005 RMK A01 T01550130  RH  085%=      5-min Rain = 0
KCO2 231433Z 24006KT 16/13 A3005 RMK A01 T01550130  RH  085%=      5-min Rain = 0
KCO2 231434Z 23006KT 16/13 A3005 RMK A01 T01550130  RH  085%=      5-min Rain = 0
KCO2 231435Z 23004KT 16/13 A3005 RMK A01 T01560130  RH  085%=      5-min Rain = 0
KCO2 231436Z 22004KT 16/13 A3005 RMK A01 T01570131  RH  084%=      5-min Rain = 0
KCO2 231437Z 23006KT 16/13 A3005 RMK A01 T01580131  RH  084%=      5-min Rain = 0
KCO2 231438Z 24007KT 16/13 A3005 RMK A01 T01590130  RH  083%=      5-min Rain = 0
KCO2 231439Z 23005KT 16/13 A3005 RMK A01 T01590129  RH  083%=      5-min Rain = 0
KCO2 231440Z 23006KT 16/13 A3005 RMK A01 T01590130  RH  083%=      5-min Rain = 0
KCO2 231441Z 24007KT 16/13 A3005 RMK A01 T01600130  RH  082%=      5-min Rain = 0
KCO2 231442Z 23007KT 16/13 A3005 RMK A01 T01600129  RH  082%=      5-min Rain = 0
KCO2 231443Z 23006KT 16/13 A3005 RMK A01 T01600131  RH  083%=      5-min Rain = 0
KCO2 231444Z 23008KT 16/13 A3005 RMK A01 T01620131  RH  082%=      5-min Rain = 0
KCO2 231445Z 23008KT 16/13 A3005 RMK A01 T01630130  RH  081%=      5-min Rain = 0
KCO2 231446Z 24008KT 16/13 A3005 RMK A01 T01630130  RH  081%=      5-min Rain = 0
KCO2 231447Z 24007KT 16/13 A3005 RMK A01 T01630130  RH  081%=      5-min Rain = 0
KCO2 231448Z 24006KT 16/13 A3005 RMK A01 T01640130  RH  081%=      5-min Rain = 0
KCO2 231449Z 23006KT 17/13 A3005 RMK A01 T01650131  RH  081%=      5-min Rain = 0
KCO2 231450Z 24007KT 17/13 A3005 RMK A01 T01670132  RH  080%=      5-min Rain = 0
KCO2 231451Z 23008KT 17/13 A3005 RMK A01 T01670131  RH  079%=      5-min Rain = 0
KCO2 231452Z 23007KT 17/13 A3005 RMK A01 T01680131  RH  079%=      5-min Rain = 0
KCO2 231453Z 23007KT 17/13 A3005 RMK A01 T01680131  RH  079%=      5-min Rain = 0
KCO2 231454Z 23008KT 17/13 A3005 RMK A01 T01690132  RH  079%=      5-min Rain = 0
KCO2 231455Z 25008KT 17/13 A3006 RMK A01 T01710133  RH  078%=      5-min Rain = 0
KCO2 231456Z 26007KT 17/13 A3006 RMK A01 T01720131  RH  077%=      5-min Rain = 0
KCO2 231457Z 26007KT 17/13 A3006 RMK A01 T01720130  RH  076%=      5-min Rain = 0
KCO2 231458Z 24008KT 17/13 A3006 RMK A01 T01720131  RH  077%=      5-min Rain = 0
KCO2 231459Z 25009KT 17/13 A3006 RMK A01 T01710130  RH  076%=      5-min Rain = 0
KCO2 231500Z 24010KT 17/13 A3006 RMK A01 T01700129  RH  077%=      5-min Rain = 0
KCO2 231501Z 24010KT 17/13 A3006 RMK A01 T01680128  RH  077%=      5-min Rain = 0
KCO2 231502Z 24011KT 17/13 A3006 RMK A01 T01660128  RH  078%=      5-min Rain = 0
KCO2 231503Z 25011KT 17/13 A3006 RMK A01 T01650128  RH  079%=      5-min Rain = 0
KCO2 231504Z 25009KT 17/13 A3006 RMK A01 T01650128  RH  079%=      5-min Rain = 0
KCO2 231505Z 26011KT 17/13 A3006 RMK A01 T01650126  RH  078%=      5-min Rain = 0
KCO2 231506Z 26010KT 17/13 A3006 RMK A01 T01650126  RH  078%=      5-min Rain = 0
KCO2 231507Z 26011KT 17/13 A3006 RMK A01 T01650126  RH  078%=      5-min Rain = 0
KCO2 231508Z 27010KT 17/13 A3006 RMK A01 T01670127  RH  077%=      5-min Rain = 0
KCO2 231509Z 26008KT 17/13 A3006 RMK A01 T01680125  RH  076%=      5-min Rain = 0
KCO2 231510Z 26010KT 17/12 A3006 RMK A01 T01660124  RH  076%=      5-min Rain = 0
KCO2 231511Z 26009KT 16/12 A3006 RMK A01 T01640122  RH  076%=      5-min Rain = 0
KCO2 231512Z 25010KT 16/12 A3006 RMK A01 T01630122  RH  077%=      5-min Rain = 0
KCO2 231513Z 25009KT 16/12 A3006 RMK A01 T01620123  RH  077%=      5-min Rain = 0
KCO2 231514Z 26007KT 16/12 A3006 RMK A01 T01630124  RH  078%=      5-min Rain = 0
KCO2 231515Z 26009KT 16/12 A3006 RMK A01 T01630124  RH  077%=      5-min Rain = 0
KCO2 231516Z 26008KT 16/12 A3006 RMK A01 T01630123  RH  077%=      5-min Rain = 0
KCO2 231517Z 26008KT 16/12 A3006 RMK A01 T01620123  RH  077%=      5-min Rain = 0
KCO2 231518Z 26009KT 16/12 A3006 RMK A01 T01610122  RH  077%=      5-min Rain = 0
KCO2 231519Z 26009KT 16/12 A3006 RMK A01 T01610122  RH  078%=      5-min Rain = 0
KCO2 231520Z 25009KT 16/12 A3006 RMK A01 T01600123  RH  078%=      5-min Rain = 0
KCO2 231521Z 25008KT 16/12 A3006 RMK A01 T01610124  RH  078%=      5-min Rain = 0
KCO2 231522Z 26008KT 16/12 A3006 RMK A01 T01620123  RH  078%=      5-min Rain = 0
KCO2 231523Z 26009KT 16/12 A3006 RMK A01 T01630122  RH  077%=      5-min Rain = 0
KCO2 231524Z 26010KT 16/12 A3006 RMK A01 T01640122  RH  076%=      5-min Rain = 0
KCO2 231525Z 26009KT 16/12 A3006 RMK A01 T01640123  RH  077%=      5-min Rain = 0
KCO2 231526Z 25009KT 16/12 A3006 RMK A01 T01640124  RH  077%=      5-min Rain = 0
KCO2 231527Z 26009KT 17/12 A3006 RMK A01 T01650124  RH  077%=      5-min Rain = 0
KCO2 231528Z 26010KT 17/12 A3006 RMK A01 T01650122  RH  076%=      5-min Rain = 0
KCO2 231529Z 26010KT 16/12 A3006 RMK A01 T01640121  RH  076%=      5-min Rain = 0
KCO2 231530Z 25010KT 16/12 A3006 RMK A01 T01630121  RH  076%=      5-min Rain = 0
KCO2 231531Z 25009KT 16/12 A3006 RMK A01 T01620122  RH  077%=      5-min Rain = 0
KCO2 231532Z 25008KT 16/12 A3006 RMK A01 T01620121  RH  077%=      5-min Rain = 0
KCO2 231533Z 24008KT 16/12 A3006 RMK A01 T01610121  RH  077%=      5-min Rain = 0
KCO2 231534Z 24008KT 16/12 A3006 RMK A01 T01610120  RH  076%=      5-min Rain = 0
KCO2 231535Z 24008KT 16/12 A3006 RMK A01 T01640121  RH  076%=      5-min Rain = 0
KCO2 231536Z 24009KT 17/12 A3006 RMK A01 T01670123  RH  075%=      5-min Rain = 0
KCO2 231537Z 25010KT 17/12 A3006 RMK A01 T01710123  RH  074%=      5-min Rain = 0
KCO2 231538Z 25009KT 17/12 A3005 RMK A01 T01730122  RH  072%=      5-min Rain = 0
KCO2 231539Z 24007KT 18/12 A3005 RMK A01 T01750124  RH  072%=      5-min Rain = 0
KCO2 231540Z 25007KT 18/13 A3005 RMK A01 T01770125  RH  071%=      5-min Rain = 0
KCO2 231541Z 24007KT 18/12 A3005 RMK A01 T01780124  RH  071%=      5-min Rain = 0
KCO2 231542Z 25007KT 18/13 A3005 RMK A01 T01810126  RH  071%=      5-min Rain = 0
KCO2 231543Z 25008KT 18/12 A3005 RMK A01 T01830124  RH  069%=      5-min Rain = 0
KCO2 231544Z 25008KT 18/12 A3005 RMK A01 T01820124  RH  069%=      5-min Rain = 0
KCO2 231545Z 26009KT 18/12 A3006 RMK A01 T01820124  RH  069%=      5-min Rain = 0
KCO2 231546Z 26009KT 18/12 A3006 RMK A01 T01820119  RH  067%=      5-min Rain = 0
KCO2 231547Z 25009KT 18/12 A3006 RMK A01 T01800116  RH  066%=      5-min Rain = 0
KCO2 231548Z 24008KT 18/12 A3006 RMK A01 T01790115  RH  066%=      5-min Rain = 0
KCO2 231549Z 24007KT 18/12 A3006 RMK A01 T01790115  RH  066%=      5-min Rain = 0
KCO2 231550Z 25007KT 18/12 A3006 RMK A01 T01790115  RH  066%=      5-min Rain = 0
KCO2 231551Z 23006KT 18/12 A3005 RMK A01 T01780117  RH  067%=      5-min Rain = 0
KCO2 231552Z 24005KT 18/12 A3005 RMK A01 T01780120  RH  069%=      5-min Rain = 0
KCO2 231553Z 24004KT 18/12 A3005 RMK A01 T01800120  RH  068%=      5-min Rain = 0
KCO2 231554Z 24006KT 18/12 A3005 RMK A01 T01820121  RH  067%=      5-min Rain = 0
KCO2 231555Z 24007KT 19/12 A3005 RMK A01 T01850119  RH  066%=      5-min Rain = 0
KCO2 231556Z 23009KT 18/12 A3005 RMK A01 T01840118  RH  065%=      5-min Rain = 0
KCO2 231557Z 21007KT 18/12 A3005 RMK A01 T01840119  RH  066%=      5-min Rain = 0
KCO2 231558Z 22007KT 19/12 A3005 RMK A01 T01850117  RH  065%=      5-min Rain = 0
KCO2 231559Z 23009KT 19/12 A3005 RMK A01 T01860118  RH  065%=      5-min Rain = 0
KCO2 231600Z 25008KT 19/12 A3005 RMK A01 T01850119  RH  065%=      5-min Rain = 0
KCO2 231601Z 25007KT 19/12 A3006 RMK A01 T01860119  RH  065%=      5-min Rain = 0
KCO2 231602Z 24007KT 19/12 A3006 RMK A01 T01860116  RH  064%=      5-min Rain = 0
KCO2 231603Z 26006KT 19/12 A3006 RMK A01 T01860116  RH  064%=      5-min Rain = 0
KCO2 231604Z 28005KT 19/11 A3006 RMK A01 T01860114  RH  063%=      5-min Rain = 0
KCO2 231605Z 28006KT 19/11 A3006 RMK A01 T01870109  RH  061%=      5-min Rain = 0
KCO2 231606Z 28006KT 19/11 A3006 RMK A01 T01850108  RH  061%=      5-min Rain = 0
KCO2 231607Z 26007KT 19/11 A3006 RMK A01 T01850106  RH  060%=      5-min Rain = 0
KCO2 231608Z 25004KT 19/11 A3006 RMK A01 T01860107  RH  060%=      5-min Rain = 0
KCO2 231609Z 25004KT 19/11 A3005 RMK A01 T01900109  RH  059%=      5-min Rain = 0
KCO2 231610Z 25004KT 19/11 A3005 RMK A01 T01920108  RH  058%=      5-min Rain = 0
KCO2 231611Z 23002KT 19/11 A3005 RMK A01 T01930108  RH  058%=      5-min Rain = 0
KCO2 231612Z 21003KT 19/11 A3005 RMK A01 T01920107  RH  058%=      5-min Rain = 0
KCO2 231613Z 26004KT 19/11 A3005 RMK A01 T01920108  RH  058%=      5-min Rain = 0
KCO2 231614Z 26004KT 19/11 A3005 RMK A01 T01920111  RH  059%=      5-min Rain = 0
KCO2 231615Z 26006KT 19/11 A3005 RMK A01 T01880110  RH  060%=      5-min Rain = 0
KCO2 231616Z 26006KT 19/11 A3005 RMK A01 T01880109  RH  060%=      5-min Rain = 0
KCO2 231617Z 26006KT 19/10 A3005 RMK A01 T01890104  RH  058%=      5-min Rain = 0
KCO2 231618Z 24005KT 19/11 A3005 RMK A01 T01910105  RH  057%=      5-min Rain = 0
KCO2 231619Z 28006KT 19/10 A3005 RMK A01 T01930102  RH  055%=      5-min Rain = 0
KCO2 231620Z 30004KT 19/10 A3005 RMK A01 T01940099  RH  054%=      5-min Rain = 0
KCO2 231621Z 28009KT 19/10 A3005 RMK A01 T01940097  RH  053%=      5-min Rain = 0
KCO2 231622Z 27005KT 19/09 A3005 RMK A01 T01940089  RH  051%=      5-min Rain = 0
KCO2 231623Z 27005KT 19/09 A3005 RMK A01 T01930090  RH  051%=      5-min Rain = 0
KCO2 231624Z 26005KT 19/09 A3005 RMK A01 T01930089  RH  051%=      5-min Rain = 0
KCO2 231625Z 25004KT 19/09 A3005 RMK A01 T01920091  RH  052%=      5-min Rain = 0
KCO2 231626Z 26005KT 19/09 A3005 RMK A01 T01910091  RH  052%=      5-min Rain = 0
KCO2 231627Z 27005KT 19/09 A3005 RMK A01 T01920093  RH  053%=      5-min Rain = 0
KCO2 231628Z 28004KT 19/09 A3005 RMK A01 T01910093  RH  053%=      5-min Rain = 0
KCO2 231629Z 22007KT 19/10 A3005 RMK A01 T01920098  RH  054%=      5-min Rain = 0
KCO2 231630Z 22004KT 19/10 A3005 RMK A01 T01940095  RH  053%=      5-min Rain = 0
KCO2 231631Z 22006KT 20/10 A3005 RMK A01 T01950097  RH  053%=      5-min Rain = 0
KCO2 231632Z 23004KT 20/10 A3005 RMK A01 T01960095  RH  052%=      5-min Rain = 0
KCO2 231633Z 24006KT 20/10 A3005 RMK A01 T01960098  RH  053%=      5-min Rain = 0
KCO2 231634Z 24005KT 20/10 A3005 RMK A01 T01970096  RH  052%=      5-min Rain = 0
KCO2 231635Z 27002KT 20/10 A3005 RMK A01 T01960097  RH  053%=      5-min Rain = 0
KCO2 231636Z 33005KT 20/09 A3005 RMK A01 T01950085  RH  049%=      5-min Rain = 0
KCO2 231637Z 33003KT 20/07 A3005 RMK A01 T01950071  RH  045%=      5-min Rain = 0
KCO2 231638Z 34003KT 20/08 A3005 RMK A01 T01960076  RH  046%=      5-min Rain = 0
KCO2 231639Z 31004KT 20/08 A3005 RMK A01 T01980081  RH  047%=      5-min Rain = 0
KCO2 231640Z 28004KT 20/09 A3005 RMK A01 T01970092  RH  051%=      5-min Rain = 0
KCO2 231641Z 29004KT 20/09 A3005 RMK A01 T01970092  RH  051%=      5-min Rain = 0
KCO2 231642Z 28008KT 20/09 A3005 RMK A01 T01970086  RH  049%=      5-min Rain = 0
KCO2 231643Z 27006KT 20/09 A3005 RMK A01 T01970085  RH  048%=      5-min Rain = 0
KCO2 231644Z 29006KT 20/08 A3005 RMK A01 T02000084  RH  047%=      5-min Rain = 0
KCO2 231645Z 31005KT 20/08 A3005 RMK A01 T02000084  RH  047%=      5-min Rain = 0
KCO2 231646Z 25005KT 20/08 A3005 RMK A01 T02000081  RH  046%=      5-min Rain = 0
KCO2 231647Z 29005KT 20/08 A3005 RMK A01 T02000079  RH  046%=      5-min Rain = 0
KCO2 231648Z 30007KT 20/08 A3005 RMK A01 T02010081  RH  046%=      5-min Rain = 0
KCO2 231649Z 30005KT 20/08 A3005 RMK A01 T02010080  RH  045%=      5-min Rain = 0
KCO2 231650Z 30004KT 20/08 A3005 RMK A01 T02000079  RH  046%=      5-min Rain = 0
KCO2 231651Z 32005KT 20/08 A3005 RMK A01 T02000081  RH  046%=      5-min Rain = 0
KCO2 231652Z 30005KT 20/08 A3005 RMK A01 T02000080  RH  046%=      5-min Rain = 0
KCO2 231653Z 24003KT 20/08 A3005 RMK A01 T02000083  RH  047%=      5-min Rain = 0
KCO2 231654Z 30002KT 20/09 A3005 RMK A01 T02030086  RH  047%=      5-min Rain = 0
KCO2 231655Z 31004KT 21/09 A3005 RMK A01 T02050086  RH  046%=      5-min Rain = 0
KCO2 231656Z 31002KT 20/08 A3005 RMK A01 T02030082  RH  046%=      5-min Rain = 0
KCO2 231657Z 31005KT 20/08 A3005 RMK A01 T02020079  RH  045%=      5-min Rain = 0
KCO2 231658Z 31008KT 20/07 A3005 RMK A01 T02040066  RH  041%=      5-min Rain = 0
KCO2 231659Z 32007KT 21/06 A3005 RMK A01 T02050063  RH  039%=      5-min Rain = 0
KCO2 231700Z 33007KT 21/06 A3005 RMK A01 T02070062  RH  039%=      5-min Rain = 0
KCO2 231701Z 34007KT 21/06 A3005 RMK A01 T02070058  RH  038%=      5-min Rain = 0
KCO2 231702Z 34006KT 21/06 A3005 RMK A01 T02050057  RH  038%=      5-min Rain = 0
KCO2 231703Z 35007KT 20/06 A3005 RMK A01 T02040060  RH  039%=      5-min Rain = 0
KCO2 231704Z 33006KT 20/06 A3005 RMK A01 T02040063  RH  040%=      5-min Rain = 0
KCO2 231705Z 27003KT 21/06 A3005 RMK A01 T02050064  RH  040%=      5-min Rain = 0
KCO2 231706Z 26005KT 21/07 A3005 RMK A01 T02050070  RH  042%=      5-min Rain = 0
KCO2 231707Z 29004KT 21/07 A3005 RMK A01 T02050072  RH  042%=      5-min Rain = 0
KCO2 231708Z 28003KT 21/07 A3005 RMK A01 T02050071  RH  042%=      5-min Rain = 0
KCO2 231709Z 30003KT 21/07 A3004 RMK A01 T02050073  RH  042%=      5-min Rain = 0
KCO2 231710Z 32005KT 21/08 A3004 RMK A01 T02050075  RH  043%=      5-min Rain = 0
KCO2 231711Z 31004KT 21/07 A3005 RMK A01 T02060073  RH  042%=      5-min Rain = 0
KCO2 231712Z 31002KT 21/07 A3005 RMK A01 T02050072  RH  042%=      5-min Rain = 0
KCO2 231713Z 31002KT 21/07 A3005 RMK A01 T02050074  RH  043%=      5-min Rain = 0
KCO2 231714Z 32004KT 21/07 A3005 RMK A01 T02060073  RH  042%=      5-min Rain = 0
KCO2 231715Z 33004KT 21/07 A3005 RMK A01 T02070070  RH  041%=      5-min Rain = 0
KCO2 231716Z 28005KT 21/07 A3004 RMK A01 T02070069  RH  041%=      5-min Rain = 0
KCO2 231717Z 27009KT 21/06 A3004 RMK A01 T02100062  RH  038%=      5-min Rain = 0
KCO2 231718Z 26008KT 21/06 A3004 RMK A01 T02110057  RH  037%=      5-min Rain = 0
KCO2 231719Z 29009KT 21/06 A3004 RMK A01 T02120058  RH  037%=      5-min Rain = 0
KCO2 231720Z 28010KT 21/05 A3004 RMK A01 T02140051  RH  035%=      5-min Rain = 0
KCO2 231721Z 28008KT 21/05 A3004 RMK A01 T02140052  RH  035%=      5-min Rain = 0
KCO2 231722Z 30006KT 21/05 A3004 RMK A01 T02120052  RH  035%=      5-min Rain = 0
KCO2 231723Z 30004KT 21/05 A3004 RMK A01 T02110050  RH  035%=      5-min Rain = 0
KCO2 231724Z 28008KT 21/05 A3004 RMK A01 T02100054  RH  036%=      5-min Rain = 0
KCO2 231725Z 31008KT 21/06 A3004 RMK A01 T02130056  RH  036%=      5-min Rain = 0
KCO2 231726Z 32007KT 21/05 A3004 RMK A01 T02140050  RH  034%=      5-min Rain = 0
KCO2 231727Z 30007KT 21/05 A3004 RMK A01 T02120052  RH  035%=      5-min Rain = 0
KCO2 231728Z 32004KT 21/05 A3004 RMK A01 T02120054  RH  036%=      5-min Rain = 0
KCO2 231729Z 02003KT 21/05 A3004 RMK A01 T02110050  RH  035%=      5-min Rain = 0
KCO2 231730Z 01003KT 21/05 A3004 RMK A01 T02090052  RH  036%=      5-min Rain = 0
KCO2 231731Z 00000KT 21/05 A3004 RMK A01 T02090053  RH  036%=      5-min Rain = 0
KCO2 231732Z 27006KT 21/05 A3004 RMK A01 T02090053  RH  036%=      5-min Rain = 0
KCO2 231733Z 26006KT 21/05 A3004 RMK A01 T02100052  RH  036%=      5-min Rain = 0
KCO2 231734Z 22006KT 21/05 A3004 RMK A01 T02090051  RH  035%=      5-min Rain = 0
KCO2 231735Z 24007KT 21/05 A3004 RMK A01 T02090051  RH  035%=      5-min Rain = 0
KCO2 231736Z 23006KT 21/05 A3004 RMK A01 T02100051  RH  035%=      5-min Rain = 0
KCO2 231737Z 23007KT 21/05 A3004 RMK A01 T02130049  RH  034%=      5-min Rain = 0
KCO2 231738Z 25005KT 21/05 A3004 RMK A01 T02130047  RH  034%=      5-min Rain = 0
KCO2 231739Z 25007KT 21/05 A3004 RMK A01 T02140051  RH  034%=      5-min Rain = 0
KCO2 231740Z 21005KT 22/05 A3004 RMK A01 T02160049  RH  033%=      5-min Rain = 0
KCO2 231741Z 24005KT 22/05 A3004 RMK A01 T02150052  RH  035%=      5-min Rain = 0
KCO2 231742Z 23005KT 22/05 A3004 RMK A01 T02150053  RH  035%=      5-min Rain = 0
KCO2 231743Z 26004KT 21/05 A3004 RMK A01 T02120052  RH  035%=      5-min Rain = 0
KCO2 231744Z 25003KT 21/05 A3004 RMK A01 T02110052  RH  036%=      5-min Rain = 0
KCO2 231745Z 28005KT 21/05 A3004 RMK A01 T02110049  RH  035%=      5-min Rain = 0
KCO2 231746Z 28010KT 21/04 A3004 RMK A01 T02120039  RH  032%=      5-min Rain = 0
KCO2 231747Z 28009KT 22/04 A3004 RMK A01 T02150037  RH  031%=      5-min Rain = 0
KCO2 231748Z 26007KT 22/04 A3004 RMK A01 T02160037  RH  031%=      5-min Rain = 0
KCO2 231749Z 26008KT 22/04 A3004 RMK A01 T02180040  RH  031%=      5-min Rain = 0
KCO2 231750Z 29010KT 22/05 A3004 RMK A01 T02200045  RH  032%=      5-min Rain = 0
KCO2 231751Z 31007KT 22/04 A3004 RMK A01 T02200042  RH  031%=      5-min Rain = 0
KCO2 231752Z 28007KT 22/04 A3004 RMK A01 T02190042  RH  031%=      5-min Rain = 0
KCO2 231753Z 27007KT 22/04 A3004 RMK A01 T02170041  RH  031%=      5-min Rain = 0
KCO2 231754Z 26005KT 22/04 A3004 RMK A01 T02170042  RH  032%=      5-min Rain = 0
KCO2 231755Z 24003KT 22/04 A3004 RMK A01 T02150042  RH  032%=      5-min Rain = 0
KCO2 231756Z 26003KT 21/04 A3004 RMK A01 T02140042  RH  032%=      5-min Rain = 0
KCO2 231757Z 25005KT 21/04 A3004 RMK A01 T02140044  RH  033%=      5-min Rain = 0
KCO2 231758Z 25006KT 22/05 A3004 RMK A01 T02160047  RH  033%=      5-min Rain = 0
KCO2 231759Z 27007KT 22/05 A3004 RMK A01 T02190046  RH  032%=      5-min Rain = 0
KCO2 231800Z 32007KT 22/04 A3004 RMK A01 T02190038  RH  031%=      5-min Rain = 0
KCO2 231801Z 30006KT 22/04 A3004 RMK A01 T02190037  RH  030%=      5-min Rain = 0
KCO2 231802Z 29006KT 22/04 A3003 RMK A01 T02180040  RH  031%=      5-min Rain = 0
KCO2 231803Z 29007KT 22/04 A3003 RMK A01 T02170041  RH  031%=      5-min Rain = 0
KCO2 231804Z 31007KT 22/04 A3003 RMK A01 T02190042  RH  031%=      5-min Rain = 0
KCO2 231805Z 30006KT 22/04 A3003 RMK A01 T02200040  RH  031%=      5-min Rain = 0
KCO2 231806Z 32005KT 22/04 A3003 RMK A01 T02190041  RH  031%=      5-min Rain = 0
KCO2 231807Z 29008KT 22/04 A3003 RMK A01 T02200037  RH  030%=      5-min Rain = 0
KCO2 231808Z 27006KT 22/03 A3003 RMK A01 T02200027  RH  028%=      5-min Rain = 0
KCO2 231809Z 31008KT 22/04 A3003 RMK A01 T02210036  RH  030%=      5-min Rain = 0
KCO2 231810Z 30010KT 23/03 A3003 RMK A01 T02250034  RH  029%=      5-min Rain = 0
KCO2 231811Z 29008KT 22/03 A3003 RMK A01 T02240034  RH  029%=      5-min Rain = 0
KCO2 231812Z 28005KT 22/03 A3003 RMK A01 T02240033  RH  029%=      5-min Rain = 0
KCO2 231813Z 27005KT 22/03 A3003 RMK A01 T02240031  RH  028%=      5-min Rain = 0
KCO2 231814Z 29006KT 22/03 A3003 RMK A01 T02210025  RH  028%=      5-min Rain = 0
KCO2 231815Z 31008KT 22/02 A3003 RMK A01 T02210024  RH  027%=      5-min Rain = 0
KCO2 231816Z 32006KT 22/02 A3003 RMK A01 T02210023  RH  027%=      5-min Rain = 0
KCO2 231817Z 29006KT 22/03 A3003 RMK A01 T02200030  RH  029%=      5-min Rain = 0
KCO2 231818Z 29007KT 22/04 A3003 RMK A01 T02220037  RH  030%=      5-min Rain = 0
KCO2 231819Z 29007KT 22/04 A3003 RMK A01 T02220038  RH  030%=      5-min Rain = 0
KCO2 231820Z 31009KT 23/04 A3003 RMK A01 T02250037  RH  029%=      5-min Rain = 0
KCO2 231821Z 30008KT 23/03 A3003 RMK A01 T02260031  RH  028%=      5-min Rain = 0
KCO2 231822Z 28006KT 23/03 A3003 RMK A01 T02270026  RH  027%=      5-min Rain = 0
KCO2 231823Z 25007KT 23/04 A3003 RMK A01 T02280035  RH  028%=      5-min Rain = 0
KCO2 231824Z 25008KT 23/04 A3003 RMK A01 T02270041  RH  030%=      5-min Rain = 0
KCO2 231825Z 25007KT 23/04 A3003 RMK A01 T02260041  RH  030%=      5-min Rain = 0
KCO2 231826Z 25005KT 22/04 A3003 RMK A01 T02240039  RH  030%=      5-min Rain = 0
KCO2 231827Z 25005KT 22/04 A3003 RMK A01 T02220041  RH  031%=      5-min Rain = 0
KCO2 231828Z 27004KT 22/04 A3003 RMK A01 T02230043  RH  031%=      5-min Rain = 0
KCO2 231829Z 28004KT 23/04 A3003 RMK A01 T02250043  RH  030%=      5-min Rain = 0
KCO2 231830Z 26004KT 22/04 A3003 RMK A01 T02240043  RH  031%=      5-min Rain = 0
KCO2 231831Z 20004KT 22/04 A3003 RMK A01 T02240039  RH  030%=      5-min Rain = 0
KCO2 231832Z 20003KT 22/04 A3002 RMK A01 T02230039  RH  030%=      5-min Rain = 0
KCO2 231833Z 24003G9KT 22/03 A3002 RMK A01 T02240032  RH  028%=      5-min Rain = 0
KCO2 231834Z 26008KT 23/03 A3002 RMK A01 T02250031  RH  028%=      5-min Rain = 0
KCO2 231835Z 26007KT 23/03 A3002 RMK A01 T02260029  RH  027%=      5-min Rain = 0
KCO2 231836Z 26008KT 23/03 A3002 RMK A01 T02280031  RH  027%=      5-min Rain = 0
KCO2 231837Z 24010KT 23/04 A3002 RMK A01 T02320038  RH  028%=      5-min Rain = 0
KCO2 231838Z 26007KT 24/04 A3002 RMK A01 T02350039  RH  028%=      5-min Rain = 0
KCO2 231839Z 23007KT 23/04 A3002 RMK A01 T02310036  RH  028%=      5-min Rain = 0
KCO2 231840Z 21009KT 23/03 A3002 RMK A01 T02310034  RH  028%=      5-min Rain = 0
KCO2 231841Z 20005KT 23/03 A3002 RMK A01 T02310033  RH  027%=      5-min Rain = 0
KCO2 231842Z 21008KT 23/03 A3002 RMK A01 T02310030  RH  027%=      5-min Rain = 0
KCO2 231843Z 22007KT 23/03 A3002 RMK A01 T02320025  RH  026%=      5-min Rain = 0
KCO2 231844Z 24006KT 23/03 A3002 RMK A01 T02340025  RH  025%=      5-min Rain = 0
KCO2 231845Z 26007KT 23/02 A3002 RMK A01 T02320024  RH  026%=      5-min Rain = 0
KCO2 231846Z 27008KT 23/02 A3002 RMK A01 T02310024  RH  026%=      5-min Rain = 0
KCO2 231847Z 27005KT 23/02 A3002 RMK A01 T02320020  RH  025%=      5-min Rain = 0
KCO2 231848Z 27007KT 23/02 A3002 RMK A01 T02310024  RH  026%=      5-min Rain = 0
KCO2 231849Z 26009KT 23/03 A3002 RMK A01 T02320027  RH  026%=      5-min Rain = 0
KCO2 231850Z 23009KT 23/03 A3002 RMK A01 T02340027  RH  026%=      5-min Rain = 0
KCO2 231851Z 22006KT 24/02 A3002 RMK A01 T02350023  RH  025%=      5-min Rain = 0
KCO2 231852Z 23005KT 23/02 A3002 RMK A01 T02320021  RH  025%=      5-min Rain = 0
KCO2 231853Z 21006KT 23/03 A3002 RMK A01 T02310025  RH  026%=      5-min Rain = 0
KCO2 231854Z 22006KT 23/02 A3001 RMK A01 T02340024  RH  025%=      5-min Rain = 0
KCO2 231855Z 24006KT 24/03 A3001 RMK A01 T02350026  RH  026%=      5-min Rain = 0
KCO2 231856Z 24008KT 24/02 A3001 RMK A01 T02370016  RH  024%=      5-min Rain = 0
KCO2 231857Z 25009KT 24/01 A3001 RMK A01 T02360011  RH  023%=      5-min Rain = 0
KCO2 231858Z 28009KT 24/01 A3001 RMK A01 T02350010  RH  023%=      5-min Rain = 0
KCO2 231859Z 26006KT 23/01 A3001 RMK A01 T02330014  RH  024%=      5-min Rain = 0
KCO2 231900Z 25009KT 24/02 A3001 RMK A01 T02370017  RH  024%=      5-min Rain = 0
KCO2 231901Z 23007KT 24/01 A3001 RMK A01 T02390013  RH  023%=      5-min Rain = 0
KCO2 231902Z 23005KT 24/01 A3001 RMK A01 T02360009  RH  022%=      5-min Rain = 0
KCO2 231903Z 23006KT 23/01 A3001 RMK A01 T02330011  RH  023%=      5-min Rain = 0
KCO2 231904Z 23006KT 23/01 A3001 RMK A01 T02330013  RH  023%=      5-min Rain = 0
KCO2 231905Z 22005KT 23/01 A3001 RMK A01 T02340012  RH  023%=      5-min Rain = 0
KCO2 231906Z 23005KT 23/01 A3001 RMK A01 T02340013  RH  023%=      5-min Rain = 0
KCO2 231907Z 25002KT 24/01 A3001 RMK A01 T02360013  RH  023%=      5-min Rain = 0
KCO2 231908Z 27005KT 24/02 A3001 RMK A01 T02370016  RH  023%=      5-min Rain = 0
KCO2 231909Z 26007G12KT 24/01 A3001 RMK A01 T02360012  RH  023%=      5-min Rain = 0
KCO2 231910Z 24008KT 24/01 A30 RMK A01 T02360013  RH  023%=      5-min Rain = 0
KCO2 231911Z 23006KT 24/01 A30 RMK A01 T02350014  RH  023%=      5-min Rain = 0
KCO2 231912Z 21004KT 24/01 A30 RMK A01 T02350014  RH  023%=      5-min Rain = 0
KCO2 231913Z 20004KT 23/01 A30 RMK A01 T02340011  RH  023%=      5-min Rain = 0
KCO2 231914Z 19002KT 23/01 A30 RMK A01 T02320014  RH  024%=      5-min Rain = 0
KCO2 231915Z 20006KT 23/02 A30 RMK A01 T02340017  RH  024%=      5-min Rain = 0
KCO2 231916Z 27005KT 24/02 A30 RMK A01 T02390018  RH  023%=      5-min Rain = 0
KCO2 231917Z 28009KT 24/01 A30 RMK A01 T02410014  RH  022%=      5-min Rain = 0
KCO2 231918Z 25009KT 24/01 A30 RMK A01 T02420013  RH  022%=      5-min Rain = 0
KCO2 231919Z 26008KT 24/01 A30 RMK A01 T02390012  RH  022%=      5-min Rain = 0
KCO2 231920Z 26006KT 24/01 A30 RMK A01 T02390014  RH  023%=      5-min Rain = 0
KCO2 231921Z 26008KT 24/02 A30 RMK A01 T02420015  RH  023%=      5-min Rain = 0
KCO2 231922Z 24010KT 24/01 A30 RMK A01 T02420010  RH  022%=      5-min Rain = 0
KCO2 231923Z 24006KT 24/00 A30 RMK A01 T02390002  RH  021%=      5-min Rain = 0
KCO2 231924Z 23006KT 24/00 A30 RMK A01 T02350002  RH  021%=      5-min Rain = 0
KCO2 231925Z 22007KT 23/00 A30 RMK A01 T02340004  RH  022%=      5-min Rain = 0
KCO2 231926Z 23004KT 23/00 A30 RMK A01 T02320003  RH  022%=      5-min Rain = 0
KCO2 231927Z 26007KT 23/00 A30 RMK A01 T02310001  RH  022%=      5-min Rain = 0
KCO2 231928Z 28006KT 23/00 A30 RMK A01 T023300-0  RH  021%=      5-min Rain = 0
KCO2 231929Z 27006KT 23/00 A30 RMK A01 T02340002  RH  022%=      5-min Rain = 0
KCO2 231930Z 25004KT 23/00 A30 RMK A01 T02340003  RH  022%=      5-min Rain = 0
KCO2 231931Z 24006KT 24/01 A30 RMK A01 T02350007  RH  022%=      5-min Rain = 0
KCO2 231932Z 24007KT 24/01 A30 RMK A01 T02360007  RH  022%=      5-min Rain = 0
KCO2 231933Z 24006KT 24/01 A30 RMK A01 T02360010  RH  023%=      5-min Rain = 0
KCO2 231934Z 28007KT 24/01 A30 RMK A01 T02370006  RH  022%=      5-min Rain = 0
KCO2 231935Z 25004KT 24/01 A30 RMK A01 T02400013  RH  022%=      5-min Rain = 0
KCO2 231936Z 23008KT 25/01 A30 RMK A01 T02450013  RH  022%=      5-min Rain = 0
KCO2 231937Z 20007KT 25/01 A30 RMK A01 T02450012  RH  022%=      5-min Rain = 0
KCO2 231938Z 23007KT 25/01 A2999 RMK A01 T02470012  RH  021%=      5-min Rain = 0
KCO2 231939Z 20008KT 25/01 A2999 RMK A01 T02460012  RH  022%=      5-min Rain = 0
KCO2 231940Z 19007KT 25/01 A2999 RMK A01 T02450014  RH  022%=      5-min Rain = 0
KCO2 231941Z 21005KT 24/01 A2999 RMK A01 T02440014  RH  022%=      5-min Rain = 0
KCO2 231942Z 21004KT 24/02 A2999 RMK A01 T02440016  RH  022%=      5-min Rain = 0
KCO2 231943Z 25005KT 25/01 A2999 RMK A01 T02460014  RH  022%=      5-min Rain = 0
KCO2 231944Z 26006KT 25/01 A2999 RMK A01 T02470014  RH  022%=      5-min Rain = 0
KCO2 231945Z 25010KT 25/01 A2999 RMK A01 T02490010  RH  021%=      5-min Rain = 0
KCO2 231946Z 25010KT 25/01 A2999 RMK A01 T02480007  RH  020%=      5-min Rain = 0
KCO2 231947Z 23007KT 25/00 A2999 RMK A01 T02460004  RH  020%=      5-min Rain = 0
KCO2 231948Z 24005KT 24/00 A2999 RMK A01 T02430002  RH  020%=      5-min Rain = 0
KCO2 231949Z 26005KT 24/00 A2999 RMK A01 T02410002  RH  021%=      5-min Rain = 0
KCO2 231950Z 22004KT 24/M00 A2999 RMK A01 T02381001  RH  021%=      5-min Rain = 0
KCO2 231951Z 19006G11KT 24/M00 A2999 RMK A01 T02371002  RH  021%=      5-min Rain = 0
KCO2 231952Z 21007G12KT 24/M00 A2999 RMK A01 T02371002  RH  020%=      5-min Rain = 0
KCO2 231953Z 22007KT 24/M00 A2999 RMK A01 T02411004  RH  020%=      5-min Rain = 0
KCO2 231954Z 24007KT 24/M01 A2999 RMK A01 T02421006  RH  019%=      5-min Rain = 0
KCO2 231955Z 27004KT 24/M01 A2999 RMK A01 T02411007  RH  019%=      5-min Rain = 0
KCO2 231956Z 26005KT 24/M01 A2999 RMK A01 T02411007  RH  019%=      5-min Rain = 0
KCO2 231957Z 26004KT 24/M01 A2999 RMK A01 T02391006  RH  020%=      5-min Rain = 0
KCO2 231958Z 24003KT 24/M01 A2999 RMK A01 T02381005  RH  020%=      5-min Rain = 0
KCO2 231959Z 22009KT 24/M00 A2999 RMK A01 T02411004  RH  020%=      5-min Rain = 0
KCO2 232000Z 24008G13KT 25/M01 A2999 RMK A01 T02481009  RH  018%=      5-min Rain = 0
KCO2 232001Z 22011KT 25/M01 A2999 RMK A01 T02541006  RH  018%=      5-min Rain = 0
KCO2 232002Z 22007KT 25/M01 A2999 RMK A01 T02541013  RH  017%=      5-min Rain = 0
KCO2 232003Z 25007KT 25/M01 A2999 RMK A01 T02511011  RH  018%=      5-min Rain = 0
KCO2 232004Z 24012KT 25/M01 A2999 RMK A01 T02511009  RH  018%=      5-min Rain = 0
KCO2 232005Z 26010G16KT 25/M02 A2999 RMK A01 T02501016  RH  017%=      5-min Rain = 0
KCO2 232006Z 27008KT 25/M01 A2999 RMK A01 T02481013  RH  018%=      5-min Rain = 0
KCO2 232007Z 25008KT 25/M02 A2999 RMK A01 T02501015  RH  017%=      5-min Rain = 0
KCO2 232008Z 25012KT 25/M01 A2999 RMK A01 T02491012  RH  018%=      5-min Rain = 0
KCO2 232009Z 23010KT 25/M01 A2999 RMK A01 T02491013  RH  018%=      5-min Rain = 0
KCO2 232010Z 23008KT 25/M01 A2999 RMK A01 T02491013  RH  018%=      5-min Rain = 0
KCO2 232011Z 23007KT 25/M01 A2999 RMK A01 T02461014  RH  018%=      5-min Rain = 0
KCO2 232012Z 25007KT 25/M01 A2999 RMK A01 T02451014  RH  018%=      5-min Rain = 0
KCO2 232013Z 25008KT 24/M01 A2999 RMK A01 T02441012  RH  018%=      5-min Rain = 0
KCO2 232014Z 23008KT 25/M01 A2999 RMK A01 T02461009  RH  019%=      5-min Rain = 0
KCO2 232015Z 21009KT 25/M01 A2999 RMK A01 T02491008  RH  018%=      5-min Rain = 0
KCO2 232016Z 22006KT 25/M01 A2999 RMK A01 T02471012  RH  018%=      5-min Rain = 0
KCO2 232017Z 22005KT 25/M01 A2999 RMK A01 T02481008  RH  018%=      5-min Rain = 0
KCO2 232018Z 23010KT 25/M01 A2998 RMK A01 T02511008  RH  018%=      5-min Rain = 0
KCO2 232019Z 22008KT 25/M01 A2998 RMK A01 T02521012  RH  017%=      5-min Rain = 0
KCO2 232020Z 23007KT 25/M01 A2998 RMK A01 T02531010  RH  018%=      5-min Rain = 0
KCO2 232021Z 22010KT 26/M01 A2998 RMK A01 T02561008  RH  018%=      5-min Rain = 0
KCO2 232022Z 24008KT 26/M01 A2998 RMK A01 T02581013  RH  017%=      5-min Rain = 0
KCO2 232023Z 27009KT 26/M02 A2998 RMK A01 T02561018  RH  016%=      5-min Rain = 0
KCO2 232024Z 28009KT 25/M02 A2998 RMK A01 T02541016  RH  017%=      5-min Rain = 0
KCO2 232025Z 27011KT 25/M01 A2998 RMK A01 T02531013  RH  017%=      5-min Rain = 0
KCO2 232026Z 28008KT 25/M01 A2998 RMK A01 T02521011  RH  018%=      5-min Rain = 0
KCO2 232027Z 26009KT 25/M01 A2999 RMK A01 T02531011  RH  017%=      5-min Rain = 0
KCO2 232028Z 29009KT 25/M01 A2998 RMK A01 T02521014  RH  017%=      5-min Rain = 0
KCO2 232029Z 27008KT 25/M01 A2998 RMK A01 T02491014  RH  018%=      5-min Rain = 0
KCO2 232030Z 25010KT 25/M01 A2998 RMK A01 T02501009  RH  018%=      5-min Rain = 0
KCO2 232031Z 26010KT 26/M01 A2998 RMK A01 T02551008  RH  018%=      5-min Rain = 0
KCO2 232032Z 26009KT 25/M01 A2998 RMK A01 T02531013  RH  017%=      5-min Rain = 0
KCO2 232033Z 26007KT 25/M01 A2998 RMK A01 T02491014  RH  018%=      5-min Rain = 0
KCO2 232034Z 24009KT 25/M01 A2998 RMK A01 T02491009  RH  018%=      5-min Rain = 0
KCO2 232035Z 24011KT 25/M01 A2998 RMK A01 T02511010  RH  018%=      5-min Rain = 0
KCO2 232036Z 23012KT 25/M01 A2998 RMK A01 T02511010  RH  018%=      5-min Rain = 0
KCO2 232037Z 24011KT 25/M01 A2998 RMK A01 T02521011  RH  018%=      5-min Rain = 0
KCO2 232038Z 21010KT 25/M01 A2998 RMK A01 T02541010  RH  018%=      5-min Rain = 0
KCO2 232039Z 21007KT 25/M01 A2998 RMK A01 T02541012  RH  017%=      5-min Rain = 0
KCO2 232040Z 25006KT 25/M01 A2998 RMK A01 T02521010  RH  018%=      5-min Rain = 0
KCO2 232041Z 24010KT 25/M01 A2998 RMK A01 T02541008  RH  018%=      5-min Rain = 0
KCO2 232042Z 24009KT 26/M01 A2998 RMK A01 T02571009  RH  017%=      5-min Rain = 0
KCO2 232043Z 26009KT 26/M01 A2998 RMK A01 T02561011  RH  017%=      5-min Rain = 0
KCO2 232044Z 26010KT 26/M01 A2998 RMK A01 T02551012  RH  017%=      5-min Rain = 0
KCO2 232045Z 27009KT 26/M01 A2998 RMK A01 T02591009  RH  017%=      5-min Rain = 0
KCO2 232046Z 27008KT 26/M01 A2998 RMK A01 T02601013  RH  016%=      5-min Rain = 0
KCO2 232047Z 28008KT 26/M01 A2998 RMK A01 T02581013  RH  017%=      5-min Rain = 0
KCO2 232048Z 27011KT 26/M01 A2998 RMK A01 T02571011  RH  017%=      5-min Rain = 0
KCO2 232049Z 26012KT 26/M01 A2998 RMK A01 T02581012  RH  017%=      5-min Rain = 0
KCO2 232050Z 28009KT 26/M01 A2998 RMK A01 T02601012  RH  017%=      5-min Rain = 0
KCO2 232051Z 27006KT 26/M01 A2998 RMK A01 T02601010  RH  017%=      5-min Rain = 0
KCO2 232052Z 26006KT 26/M01 A2998 RMK A01 T02631009  RH  017%=      5-min Rain = 0
KCO2 232053Z 26008KT 27/M01 A2998 RMK A01 T02651009  RH  016%=      5-min Rain = 0
KCO2 232054Z 26008KT 26/M01 A2998 RMK A01 T02631012  RH  016%=      5-min Rain = 0
KCO2 232055Z 24011KT 26/M01 A2998 RMK A01 T02591014  RH  016%=      5-min Rain = 0
KCO2 232056Z 23014KT 26/M01 A2998 RMK A01 T02551014  RH  017%=      5-min Rain = 0
KCO2 232057Z 23009G14KT 25/M02 A2998 RMK A01 T02511016  RH  017%=      5-min Rain = 0
KCO2 232058Z 23007KT 25/M02 A2998 RMK A01 T02491016  RH  017%=      5-min Rain = 0
KCO2 232059Z 23008KT 25/M02 A2998 RMK A01 T02491015  RH  017%=      5-min Rain = 0
KCO2 232100Z 24009KT 25/M02 A2998 RMK A01 T02481015  RH  017%=      5-min Rain = 0
KCO2 232101Z 24006KT 25/M02 A2998 RMK A01 T02471016  RH  017%=      5-min Rain = 0
KCO2 232102Z 25005KT 25/M02 A2998 RMK A01 T02451018  RH  018%=      5-min Rain = 0
KCO2 232103Z 25004KT 24/M02 A2997 RMK A01 T02441017  RH  018%=      5-min Rain = 0
KCO2 232104Z 23003KT 24/M02 A2997 RMK A01 T02431017  RH  018%=      5-min Rain = 0
KCO2 232105Z 20004KT 24/M02 A2997 RMK A01 T02421019  RH  018%=      5-min Rain = 0
KCO2 232106Z 21002KT 24/M02 A2997 RMK A01 T02411020  RH  018%=      5-min Rain = 0
KCO2 232107Z 23005KT 24/M02 A2998 RMK A01 T02411017  RH  018%=      5-min Rain = 0
KCO2 232108Z 22006KT 24/M01 A2998 RMK A01 T02431014  RH  018%=      5-min Rain = 0
KCO2 232109Z 24008KT 25/M02 A2998 RMK A01 T02451017  RH  018%=      5-min Rain = 0
KCO2 232110Z 24007KT 24/M02 A2998 RMK A01 T02441022  RH  017%=      5-min Rain = 0
KCO2 232111Z 23009KT 24/M02 A2997 RMK A01 T02441021  RH  017%=      5-min Rain = 0
KCO2 232112Z 22006KT 24/M02 A2997 RMK A01 T02441024  RH  017%=      5-min Rain = 0
KCO2 232113Z 24004KT 25/M02 A2997 RMK A01 T02451024  RH  017%=      5-min Rain = 0
KCO2 232114Z 23005KT 25/M02 A2997 RMK A01 T02451022  RH  017%=      5-min Rain = 0
KCO2 232115Z 24009KT 25/M02 A2997 RMK A01 T02481022  RH  017%=      5-min Rain = 0
KCO2 232116Z 26009KT 25/M03 A2997 RMK A01 T02491026  RH  016%=      5-min Rain = 0
KCO2 232117Z 28010KT 25/M03 A2997 RMK A01 T02491031  RH  015%=      5-min Rain = 0
KCO2 232118Z 27010KT 25/M04 A2997 RMK A01 T02481035  RH  015%=      5-min Rain = 0
KCO2 232119Z 29009G14KT 25/M03 A2997 RMK A01 T02471033  RH  015%=      5-min Rain = 0
KCO2 232120Z 27010G15KT 25/M03 A2997 RMK A01 T02491030  RH  016%=      5-min Rain = 0
KCO2 232121Z 27012KT 25/M03 A2997 RMK A01 T02481031  RH  016%=      5-min Rain = 0
KCO2 232122Z 25008KT 25/M03 A2997 RMK A01 T02481028  RH  016%=      5-min Rain = 0
KCO2 232123Z 25009KT 25/M03 A2997 RMK A01 T02501028  RH  016%=      5-min Rain = 0
KCO2 232124Z 26012KT 25/M03 A2997 RMK A01 T02511029  RH  016%=      5-min Rain = 0
KCO2 232125Z 25010KT 25/M03 A2997 RMK A01 T02501027  RH  016%=      5-min Rain = 0
KCO2 232126Z 26012KT 25/M03 A2998 RMK A01 T02501026  RH  016%=      5-min Rain = 0
KCO2 232127Z 27013KT 25/M03 A2998 RMK A01 T02491029  RH  016%=      5-min Rain = 0
KCO2 232128Z 25010KT 25/M03 A2998 RMK A01 T02471030  RH  016%=      5-min Rain = 0
KCO2 232129Z 26009KT 25/M03 A2998 RMK A01 T02471030  RH  016%=      5-min Rain = 0
KCO2 232130Z 27008KT 25/M03 A2998 RMK A01 T02471029  RH  016%=      5-min Rain = 0
KCO2 232131Z 27009KT 25/M03 A2998 RMK A01 T02461030  RH  016%=      5-min Rain = 0
KCO2 232132Z 26009KT 25/M03 A2998 RMK A01 T02451029  RH  016%=      5-min Rain = 0
KCO2 232133Z 25008KT 25/M03 A2998 RMK A01 T02451028  RH  016%=      5-min Rain = 0
KCO2 232134Z 25008KT 25/M03 A2998 RMK A01 T02471027  RH  016%=      5-min Rain = 0
KCO2 232135Z 25008KT 25/M03 A2997 RMK A01 T02481031  RH  015%=      5-min Rain = 0
KCO2 232136Z 28011KT 25/M03 A2998 RMK A01 T02501027  RH  016%=      5-min Rain = 0
KCO2 232137Z 26011KT 25/M03 A2998 RMK A01 T02501031  RH  015%=      5-min Rain = 0
KCO2 232138Z 25013KT 25/M03 A2997 RMK A01 T02501032  RH  015%=      5-min Rain = 0
KCO2 232139Z 25011KT 25/M03 A2997 RMK A01 T02521030  RH  015%=      5-min Rain = 0
KCO2 232140Z 25012KT 25/M04 A2997 RMK A01 T02531036  RH  015%=      5-min Rain = 0
KCO2 232141Z 24012KT 25/M04 A2997 RMK A01 T02511036  RH  015%=      5-min Rain = 0
KCO2 232142Z 24011KT 25/M04 A2997 RMK A01 T02501037  RH  015%=      5-min Rain = 0
KCO2 232143Z 25011KT 25/M04 A2997 RMK A01 T02491038  RH  015%=      5-min Rain = 0
KCO2 232144Z 24008KT 25/M03 A2997 RMK A01 T02501033  RH  015%=      5-min Rain = 0
KCO2 232145Z 24011KT 25/M03 A2997 RMK A01 T02531034  RH  015%=      5-min Rain = 0
KCO2 232146Z 24009KT 25/M04 A2997 RMK A01 T02521036  RH  015%=      5-min Rain = 0
KCO2 232147Z 24009KT 25/M04 A2997 RMK A01 T02511036  RH  015%=      5-min Rain = 0
KCO2 232148Z 23008KT 25/M04 A2997 RMK A01 T02511037  RH  015%=      5-min Rain = 0
KCO2 232149Z 25010KT 25/M03 A2997 RMK A01 T02511030  RH  015%=      5-min Rain = 0
KCO2 232150Z 26009KT 26/M03 A2997 RMK A01 T02551029  RH  015%=      5-min Rain = 0
KCO2 232151Z 26008KT 26/M03 A2997 RMK A01 T02571030  RH  015%=      5-min Rain = 0
KCO2 232152Z 24009KT 26/M03 A2997 RMK A01 T02581030  RH  015%=      5-min Rain = 0
KCO2 232153Z 26011KT 26/M03 A2997 RMK A01 T02601027  RH  015%=      5-min Rain = 0
KCO2 232154Z 26012KT 26/M04 A2997 RMK A01 T02601035  RH  014%=      5-min Rain = 0
KCO2 232155Z 26012KT 26/M04 A2997 RMK A01 T02571037  RH  014%=      5-min Rain = 0
KCO2 232156Z 26010KT 26/M04 A2997 RMK A01 T02551038  RH  014%=      5-min Rain = 0
KCO2 232157Z 27011KT 25/M04 A2997 RMK A01 T02541037  RH  014%=      5-min Rain = 0
KCO2 232158Z 27009KT 25/M04 A2997 RMK A01 T02531036  RH  015%=      5-min Rain = 0
KCO2 232159Z 28011KT 25/M03 A2997 RMK A01 T02531032  RH  015%=      5-min Rain = 0
KCO2 232200Z 27012KT 26/M03 A2997 RMK A01 T02551034  RH  015%=      5-min Rain = 0
KCO2 232201Z 25013KT 26/M03 A2997 RMK A01 T02551034  RH  015%=      5-min Rain = 0
KCO2 232202Z 26011KT 25/M03 A2997 RMK A01 T02541034  RH  015%=      5-min Rain = 0
KCO2 232203Z 26010KT 25/M04 A2997 RMK A01 T02541035  RH  015%=      5-min Rain = 0
KCO2 232204Z 27007KT 25/M04 A2997 RMK A01 T02531037  RH  014%=      5-min Rain = 0
KCO2 232205Z 25006KT 25/M04 A2997 RMK A01 T02511036  RH  015%=      5-min Rain = 0
KCO2 232206Z 24007KT 25/M04 A2997 RMK A01 T02501036  RH  015%=      5-min Rain = 0
KCO2 232207Z 25008KT 25/M04 A2997 RMK A01 T02511035  RH  015%=      5-min Rain = 0
KCO2 232208Z 24005KT 25/M03 A2997 RMK A01 T02521033  RH  015%=      5-min Rain = 0
KCO2 232209Z 24007KT 26/M03 A2997 RMK A01 T02551033  RH  015%=      5-min Rain = 0
KCO2 232210Z 23008KT 26/M03 A2997 RMK A01 T02551032  RH  015%=      5-min Rain = 0
KCO2 232211Z 23012G17KT 26/M03 A2997 RMK A01 T02551030  RH  015%=      5-min Rain = 0
KCO2 232212Z 23013KT 26/M04 A2997 RMK A01 T02551035  RH  015%=      5-min Rain = 0
KCO2 232213Z 24011KT 25/M04 A2997 RMK A01 T02521036  RH  015%=      5-min Rain = 0
KCO2 232214Z 24007KT 25/M04 A2997 RMK A01 T02511040  RH  014%=      5-min Rain = 0
KCO2 232215Z 25008G13KT 25/M04 A2997 RMK A01 T02501035  RH  015%=      5-min Rain = 0
KCO2 232216Z 25013KT 26/M03 A2997 RMK A01 T02551028  RH  015%=      5-min Rain = 0
KCO2 232217Z 26012G17KT 26/M03 A2997 RMK A01 T02571032  RH  015%=      5-min Rain = 0
KCO2 232218Z 25014KT 26/M04 A2997 RMK A01 T02571036  RH  014%=      5-min Rain = 0
KCO2 232219Z 25011KT 26/M04 A2997 RMK A01 T02551035  RH  015%=      5-min Rain = 0
KCO2 232220Z 25009KT 25/M04 A2997 RMK A01 T02531035  RH  015%=      5-min Rain = 0
KCO2 232221Z 25009KT 25/M04 A2997 RMK A01 T02521038  RH  014%=      5-min Rain = 0
KCO2 232222Z 26007KT 25/M04 A2997 RMK A01 T02501037  RH  015%=      5-min Rain = 0
KCO2 232223Z 26006KT 25/M04 A2997 RMK A01 T02511037  RH  015%=      5-min Rain = 0
KCO2 232224Z 24008KT 25/M03 A2997 RMK A01 T02521033  RH  015%=      5-min Rain = 0
KCO2 232225Z 25011KT 26/M03 A2997 RMK A01 T02551028  RH  015%=      5-min Rain = 0
KCO2 232226Z 24010KT 26/M03 A2997 RMK A01 T02561033  RH  015%=      5-min Rain = 0
KCO2 232227Z 22007KT 25/M03 A2997 RMK A01 T02541033  RH  015%=      5-min Rain = 0
KCO2 232228Z 22007KT 25/M03 A2997 RMK A01 T02541032  RH  015%=      5-min Rain = 0
KCO2 232229Z 22007KT 25/M03 A2997 RMK A01 T02531034  RH  015%=      5-min Rain = 0
KCO2 232230Z 24007KT 25/M03 A2997 RMK A01 T02531031  RH  015%=      5-min Rain = 0
KCO2 232231Z 24009KT 26/M03 A2997 RMK A01 T02551031  RH  015%=      5-min Rain = 0
KCO2 232232Z 24008KT 26/M03 A2997 RMK A01 T02561029  RH  015%=      5-min Rain = 0
KCO2 232233Z 25008KT 26/M02 A2997 RMK A01 T02581023  RH  016%=      5-min Rain = 0
KCO2 232234Z 24011KT 26/M03 A2997 RMK A01 T02611025  RH  015%=      5-min Rain = 0
KCO2 232235Z 24013KT 26/M03 A2997 RMK A01 T02591031  RH  015%=      5-min Rain = 0
KCO2 232236Z 24013KT 26/M04 A2997 RMK A01 T02551035  RH  014%=      5-min Rain = 0
KCO2 232237Z 23011KT 25/M04 A2997 RMK A01 T02531035  RH  015%=      5-min Rain = 0
KCO2 232238Z 24011KT 25/M03 A2997 RMK A01 T02541031  RH  015%=      5-min Rain = 0
KCO2 232239Z 26011KT 26/M03 A2997 RMK A01 T02571032  RH  015%=      5-min Rain = 0
KCO2 232240Z 24011KT 26/M04 A2997 RMK A01 T02561037  RH  014%=      5-min Rain = 0
KCO2 232241Z 24008KT 25/M03 A2997 RMK A01 T02531033  RH  015%=      5-min Rain = 0
KCO2 232242Z 24011KT 25/M03 A2997 RMK A01 T02541029  RH  015%=      5-min Rain = 0
KCO2 232243Z 23010KT 25/M03 A2997 RMK A01 T02541029  RH  015%=      5-min Rain = 0
KCO2 232244Z 23010KT 25/M03 A2997 RMK A01 T02521033  RH  015%=      5-min Rain = 0
KCO2 232245Z 22011KT 25/M03 A2997 RMK A01 T02481034  RH  015%=      5-min Rain = 0
KCO2 232246Z 23007KT 25/M04 A2997 RMK A01 T02461035  RH  015%=      5-min Rain = 0
KCO2 232247Z 26006KT 25/M03 A2996 RMK A01 T02451033  RH  016%=      5-min Rain = 0
KCO2 232248Z 24006KT 25/M03 A2996 RMK A01 T02451032  RH  016%=      5-min Rain = 0
KCO2 232249Z 22007KT 25/M03 A2996 RMK A01 T02461028  RH  016%=      5-min Rain = 0
KCO2 232250Z 22008KT 25/M03 A2996 RMK A01 T02471029  RH  016%=      5-min Rain = 0
KCO2 232251Z 22009G14KT 25/M03 A2996 RMK A01 T02461027  RH  016%=      5-min Rain = 0
KCO2 232252Z 23009KT 25/M03 A2996 RMK A01 T02461025  RH  016%=      5-min Rain = 0
KCO2 232253Z 23011KT 25/M02 A2996 RMK A01 T02451023  RH  017%=      5-min Rain = 0
KCO2 232254Z 23012KT 25/M02 A2996 RMK A01 T02451023  RH  017%=      5-min Rain = 0
KCO2 232255Z 23011KT 25/M02 A2996 RMK A01 T02451022  RH  017%=      5-min Rain = 0
KCO2 232256Z 24012KT 25/M02 A2996 RMK A01 T02451021  RH  017%=      5-min Rain = 0
KCO2 232257Z 24012KT 25/M03 A2996 RMK A01 T02461025  RH  016%=      5-min Rain = 0
KCO2 232258Z 23011KT 25/M03 A2996 RMK A01 T02461025  RH  017%=      5-min Rain = 0
KCO2 232259Z 23009KT 25/M03 A2997 RMK A01 T02461025  RH  016%=      5-min Rain = 0
KCO2 232300Z 23008KT 25/M03 A2997 RMK A01 T02461027  RH  016%=      5-min Rain = 0
KCO2 232301Z 21008KT 25/M02 A2997 RMK A01 T02461024  RH  017%=      5-min Rain = 0
KCO2 232302Z 20008KT 25/M03 A2996 RMK A01 T02461027  RH  016%=      5-min Rain = 0
KCO2 232303Z 21007KT 25/M03 A2997 RMK A01 T02461026  RH  016%=      5-min Rain = 0
KCO2 232304Z 21008KT 25/M03 A2996 RMK A01 T02461025  RH  016%=      5-min Rain = 0
KCO2 232305Z 20008KT 25/M03 A2996 RMK A01 T02471026  RH  016%=      5-min Rain = 0
KCO2 232306Z 20007KT 25/M03 A2996 RMK A01 T02471027  RH  016%=      5-min Rain = 0
KCO2 232307Z 21006KT 25/M02 A2996 RMK A01 T02471023  RH  017%=      5-min Rain = 0
KCO2 232308Z 20009KT 25/M02 A2996 RMK A01 T02481022  RH  017%=      5-min Rain = 0
KCO2 232309Z 20009G14KT 25/M02 A2996 RMK A01 T02491021  RH  017%=      5-min Rain = 0
KCO2 232310Z 22010KT 25/M02 A2996 RMK A01 T02501019  RH  017%=      5-min Rain = 0
KCO2 232311Z 21007KT 25/M02 A2996 RMK A01 T02501021  RH  016%=      5-min Rain = 0
KCO2 232312Z 21011KT 25/M02 A2996 RMK A01 T02481023  RH  017%=      5-min Rain = 0
KCO2 232313Z 22010KT 25/M02 A2996 RMK A01 T02461024  RH  017%=      5-min Rain = 0
KCO2 232314Z 21009KT 24/M03 A2996 RMK A01 T02441027  RH  016%=      5-min Rain = 0
KCO2 232315Z 21010KT 24/M02 A2996 RMK A01 T02441024  RH  017%=      5-min Rain = 0
KCO2 232316Z 23012KT 24/M02 A2996 RMK A01 T02441022  RH  017%=      5-min Rain = 0
KCO2 232317Z 23014KT 25/M03 A2996 RMK A01 T02451025  RH  017%=      5-min Rain = 0
KCO2 232318Z 24011KT 24/M03 A2997 RMK A01 T02441028  RH  016%=      5-min Rain = 0
KCO2 232319Z 24010KT 24/M03 A2997 RMK A01 T02441027  RH  016%=      5-min Rain = 0
KCO2 232320Z 23009KT 25/M03 A2997 RMK A01 T02451025  RH  017%=      5-min Rain = 0
KCO2 232321Z 23008KT 25/M03 A2997 RMK A01 T02471025  RH  016%=      5-min Rain = 0
KCO2 232322Z 23009KT 25/M03 A2997 RMK A01 T02481028  RH  016%=      5-min Rain = 0
KCO2 232323Z 23008KT 25/M03 A2996 RMK A01 T02481026  RH  016%=      5-min Rain = 0
KCO2 232324Z 23009KT 25/M02 A2996 RMK A01 T02481024  RH  016%=      5-min Rain = 0
KCO2 232325Z 23012KT 25/M02 A2997 RMK A01 T02471021  RH  017%=      5-min Rain = 0
KCO2 232326Z 23011KT 25/M02 A2997 RMK A01 T02451023  RH  017%=      5-min Rain = 0
KCO2 232327Z 24011KT 24/M02 A2997 RMK A01 T02431022  RH  017%=      5-min Rain = 0
KCO2 232328Z 23012KT 24/M02 A2997 RMK A01 T02411022  RH  017%=      5-min Rain = 0
KCO2 232329Z 23012KT 24/M02 A2997 RMK A01 T02391022  RH  017%=      5-min Rain = 0
KCO2 232330Z 23011KT 24/M02 A2997 RMK A01 T02381023  RH  018%=      5-min Rain = 0
KCO2 232331Z 24010KT 24/M02 A2997 RMK A01 T02371021  RH  018%=      5-min Rain = 0
KCO2 232332Z 23009KT 24/M02 A2997 RMK A01 T02361021  RH  018%=      5-min Rain = 0
KCO2 232333Z 24007KT 24/M02 A2997 RMK A01 T02361023  RH  018%=      5-min Rain = 0
KCO2 232334Z 24008KT 24/M02 A2997 RMK A01 T02351023  RH  018%=      5-min Rain = 0
KCO2 232335Z 22007KT 24/M02 A2997 RMK A01 T02351021  RH  018%=      5-min Rain = 0
KCO2 232336Z 23007KT 24/M02 A2997 RMK A01 T02351019  RH  018%=      5-min Rain = 0
KCO2 232337Z 23009KT 24/M02 A2997 RMK A01 T02351021  RH  018%=      5-min Rain = 0
KCO2 232338Z 22010KT 24/M02 A2997 RMK A01 T02361021  RH  018%=      5-min Rain = 0
KCO2 232339Z 23010KT 24/M02 A2997 RMK A01 T02371020  RH  018%=      5-min Rain = 0
KCO2 232340Z 24011KT 24/M02 A2997 RMK A01 T02381022  RH  018%=      5-min Rain = 0
KCO2 232341Z 23009KT 24/M02 A2997 RMK A01 T02381023  RH  018%=      5-min Rain = 0
KCO2 232342Z 23008KT 24/M02 A2997 RMK A01 T02381023  RH  017%=      5-min Rain = 0
KCO2 232343Z 23008KT 24/M02 A2997 RMK A01 T02381023  RH  017%=      5-min Rain = 0
KCO2 232344Z 23009KT 24/M02 A2997 RMK A01 T02381022  RH  018%=      5-min Rain = 0
KCO2 232345Z 22008KT 24/M02 A2997 RMK A01 T02371023  RH  018%=      5-min Rain = 0
KCO2 232346Z 22008KT 24/M02 A2997 RMK A01 T02361022  RH  018%=      5-min Rain = 0
KCO2 232347Z 22008KT 24/M02 A2997 RMK A01 T02361022  RH  018%=      5-min Rain = 0
KCO2 232348Z 22008KT 24/M02 A2997 RMK A01 T02351021  RH  018%=      5-min Rain = 0
KCO2 232349Z 23008KT 24/M02 A2997 RMK A01 T02351020  RH  018%=      5-min Rain = 0
KCO2 232350Z 23007KT 24/M02 A2997 RMK A01 T02351020  RH  018%=      5-min Rain = 0
KCO2 232351Z 22006KT 23/M02 A2997 RMK A01 T02341019  RH  018%=      5-min Rain = 0
KCO2 232352Z 22004KT 23/M02 A2997 RMK A01 T02341018  RH  019%=      5-min Rain = 0
KCO2 232353Z 22005KT 23/M02 A2997 RMK A01 T02341016  RH  019%=      5-min Rain = 0
KCO2 232354Z 22007KT 23/M02 A2997 RMK A01 T02341015  RH  019%=      5-min Rain = 0
KCO2 232355Z 22007KT 23/M02 A2997 RMK A01 T02341015  RH  019%=      5-min Rain = 0
KCO2 232356Z 21008KT 23/M02 A2997 RMK A01 T02331016  RH  019%=      5-min Rain = 0
KCO2 232357Z 21007KT 23/M02 A2997 RMK A01 T02331018  RH  019%=      5-min Rain = 0
KCO2 232358Z 22007KT 23/M02 A2996 RMK A01 T02331018  RH  019%=      5-min Rain = 0
KCO2 232359Z 21007KT 23/M02 A2996 RMK A01 T02321018  RH  019%=      5-min Rain = 0
KCO2 240000Z 21006KT 23/M02 A2996 RMK A01 T02321016  RH  019%=      5-min Rain = 0
KCO2 240001Z 21007KT 23/M02 A2996 RMK A01 T02321015  RH  019%=      5-min Rain = 0
KCO2 240002Z 21008KT 23/M01 A2996 RMK A01 T02311013  RH  020%=      5-min Rain = 0
KCO2 240003Z 21007KT 23/M01 A2997 RMK A01 T02311010  RH  020%=      5-min Rain = 0
KCO2 240004Z 20007KT 23/M01 A2997 RMK A01 T02311006  RH  021%=      5-min Rain = 0
KCO2 240005Z 20007KT 23/M00 A2997 RMK A01 T02311003  RH  021%=      5-min Rain = 0
KCO2 240006Z 19008KT 23/M00 A2997 RMK A01 T02311001  RH  021%=      5-min Rain = 0
KCO2 240007Z 20010KT 23/00 A2997 RMK A01 T02320000  RH  022%=      5-min Rain = 0
KCO2 240008Z 20011KT 23/00 A2996 RMK A01 T02320002  RH  022%=      5-min Rain = 0
KCO2 240009Z 20010KT 23/00 A2997 RMK A01 T02320004  RH  022%=      5-min Rain = 0
KCO2 240010Z 19010KT 23/00 A2997 RMK A01 T02330004  RH  022%=      5-min Rain = 0
KCO2 240011Z 19010KT 23/00 A2997 RMK A01 T02320004  RH  022%=      5-min Rain = 0
KCO2 240012Z 20009KT 23/01 A2997 RMK A01 T02310005  RH  022%=      5-min Rain = 0
KCO2 240013Z 19009KT 23/01 A2997 RMK A01 T02300005  RH  023%=      5-min Rain = 0
KCO2 240014Z 20009KT 23/01 A2997 RMK A01 T02300006  RH  023%=      5-min Rain = 0
KCO2 240015Z 19011KT 23/01 A2997 RMK A01 T02290006  RH  023%=      5-min Rain = 0
KCO2 240016Z 19010KT 23/01 A2997 RMK A01 T02280005  RH  023%=      5-min Rain = 0
KCO2 240017Z 19009KT 23/01 A2997 RMK A01 T02270006  RH  023%=      5-min Rain = 0
KCO2 240018Z 19009KT 23/01 A2997 RMK A01 T02260007  RH  023%=      5-min Rain = 0
KCO2 240019Z 19009KT 23/01 A2997 RMK A01 T02260006  RH  023%=      5-min Rain = 0
KCO2 240020Z 19010KT 23/01 A2996 RMK A01 T02250006  RH  023%=      5-min Rain = 0
KCO2 240021Z 19009KT 23/01 A2996 RMK A01 T02250005  RH  023%=      5-min Rain = 0
KCO2 240022Z 19008KT 22/01 A2996 RMK A01 T02240005  RH  023%=      5-min Rain = 0
KCO2 240023Z 19008KT 22/01 A2997 RMK A01 T02240007  RH  024%=      5-min Rain = 0
KCO2 240024Z 19008KT 22/01 A2997 RMK A01 T02230008  RH  024%=      5-min Rain = 0
KCO2 240025Z 19008KT 22/01 A2997 RMK A01 T02220008  RH  024%=      5-min Rain = 0
KCO2 240026Z 19008KT 22/01 A2997 RMK A01 T02220008  RH  024%=      5-min Rain = 0
KCO2 240027Z 19008KT 22/01 A2997 RMK A01 T02210008  RH  024%=      5-min Rain = 0
KCO2 240028Z 19008KT 22/01 A2997 RMK A01 T02210008  RH  024%=      5-min Rain = 0
KCO2 240029Z 19008KT 22/01 A2996 RMK A01 T02200009  RH  025%=      5-min Rain = 0
KCO2 240030Z 18007KT 22/01 A2996 RMK A01 T02200009  RH  025%=      5-min Rain = 0
KCO2 240031Z 18008KT 22/01 A2996 RMK A01 T02190008  RH  025%=      5-min Rain = 0
KCO2 240032Z 19008KT 22/01 A2996 RMK A01 T02190008  RH  025%=      5-min Rain = 0
KCO2 240033Z 19008KT 22/01 A2996 RMK A01 T02190008  RH  025%=      5-min Rain = 0
KCO2 240034Z 19007KT 22/01 A2996 RMK A01 T02180008  RH  025%=      5-min Rain = 0
KCO2 240035Z 18007KT 22/01 A2996 RMK A01 T02170008  RH  025%=      5-min Rain = 0
KCO2 240036Z 19007KT 22/01 A2996 RMK A01 T02160007  RH  025%=      5-min Rain = 0
KCO2 240037Z 18008KT 22/01 A2996 RMK A01 T02160007  RH  025%=      5-min Rain = 0
KCO2 240038Z 18007KT 22/01 A2996 RMK A01 T02160007  RH  025%=      5-min Rain = 0
KCO2 240039Z 18007KT 22/01 A2996 RMK A01 T02160008  RH  025%=      5-min Rain = 0
KCO2 240040Z 18007KT 21/01 A2996 RMK A01 T02140008  RH  025%=      5-min Rain = 0
KCO2 240041Z 18006KT 21/01 A2996 RMK A01 T02140008  RH  026%=      5-min Rain = 0
KCO2 240042Z 18007KT 21/01 A2996 RMK A01 T02130009  RH  026%=      5-min Rain = 0
KCO2 240043Z 18006KT 21/01 A2996 RMK A01 T02120010  RH  026%=      5-min Rain = 0
KCO2 240044Z 18007KT 21/01 A2996 RMK A01 T02110010  RH  026%=      5-min Rain = 0
KCO2 240045Z 18007KT 21/01 A2996 RMK A01 T02100010  RH  026%=      5-min Rain = 0
KCO2 240046Z 18007KT 21/01 A2996 RMK A01 T02100011  RH  027%=      5-min Rain = 0
KCO2 240047Z 18007KT 21/01 A2996 RMK A01 T02090010  RH  027%=      5-min Rain = 0
KCO2 240048Z 18007KT 21/01 A2996 RMK A01 T02080010  RH  027%=      5-min Rain = 0
KCO2 240049Z 18007KT 21/01 A2996 RMK A01 T02080011  RH  027%=      5-min Rain = 0
KCO2 240050Z 17007KT 21/01 A2996 RMK A01 T02070011  RH  027%=      5-min Rain = 0
KCO2 240051Z 18007KT 21/01 A2996 RMK A01 T02060011  RH  027%=      5-min Rain = 0
KCO2 240052Z 18007KT 21/01 A2996 RMK A01 T02050012  RH  028%=      5-min Rain = 0
KCO2 240053Z 17007KT 20/01 A2996 RMK A01 T02040011  RH  028%=      5-min Rain = 0
KCO2 240054Z 18006KT 20/01 A2996 RMK A01 T02030012  RH  028%=      5-min Rain = 0
KCO2 240055Z 18007KT 20/01 A2996 RMK A01 T02020011  RH  028%=      5-min Rain = 0
KCO2 240056Z 18006KT 20/01 A2996 RMK A01 T02010011  RH  028%=      5-min Rain = 0
KCO2 240057Z 18006KT 20/01 A2996 RMK A01 T02010011  RH  028%=      5-min Rain = 0
KCO2 240058Z 18006KT 20/01 A2996 RMK A01 T02000011  RH  028%=      5-min Rain = 0
KCO2 240059Z 18006KT 20/01 A2996 RMK A01 T01990010  RH  028%=      5-min Rain = 0
KCO2 240100Z 17006KT 20/01 A2996 RMK A01 T01980011  RH  028%=      5-min Rain = 0
KCO2 240101Z 17006KT 20/01 A2996 RMK A01 T01980011  RH  029%=      5-min Rain = 0
KCO2 240102Z 17006KT 20/01 A2996 RMK A01 T01970012  RH  029%=      5-min Rain = 0
KCO2 240103Z 17006KT 20/01 A2996 RMK A01 T01970012  RH  029%=      5-min Rain = 0
KCO2 240104Z 17005KT 20/01 A2996 RMK A01 T01950012  RH  029%=      5-min Rain = 0
KCO2 240105Z 17006KT 19/01 A2996 RMK A01 T01940012  RH  030%=      5-min Rain = 0
KCO2 240106Z 17005KT 19/01 A2996 RMK A01 T01930012  RH  030%=      5-min Rain = 0
KCO2 240107Z 17005KT 19/01 A2996 RMK A01 T01930012  RH  030%=      5-min Rain = 0
KCO2 240108Z 17006KT 19/01 A2996 RMK A01 T01920012  RH  030%=      5-min Rain = 0
KCO2 240109Z 17006KT 19/01 A2996 RMK A01 T01920012  RH  030%=      5-min Rain = 0
KCO2 240110Z 17006KT 19/01 A2996 RMK A01 T01910012  RH  030%=      5-min Rain = 0
KCO2 240111Z 17006KT 19/01 A2996 RMK A01 T01910012  RH  030%=      5-min Rain = 0
KCO2 240112Z 17006KT 19/01 A2996 RMK A01 T01900012  RH  030%=      5-min Rain = 0
KCO2 240113Z 18006KT 19/01 A2996 RMK A01 T01890012  RH  030%=      5-min Rain = 0
KCO2 240114Z 17006KT 19/01 A2996 RMK A01 T01890012  RH  031%=      5-min Rain = 0
KCO2 240115Z 17006KT 19/01 A2996 RMK A01 T01880012  RH  031%=      5-min Rain = 0
KCO2 240116Z 17006KT 19/01 A2996 RMK A01 T01870012  RH  031%=      5-min Rain = 0
KCO2 240117Z 17006KT 19/01 A2996 RMK A01 T01870012  RH  031%=      5-min Rain = 0
KCO2 240118Z 17006KT 19/01 A2996 RMK A01 T01860011  RH  031%=      5-min Rain = 0
KCO2 240119Z 17006KT 19/01 A2996 RMK A01 T01860011  RH  031%=      5-min Rain = 0
KCO2 240120Z 17005KT 19/01 A2996 RMK A01 T01860011  RH  031%=      5-min Rain = 0
KCO2 240121Z 17005KT 19/01 A2996 RMK A01 T01860011  RH  031%=      5-min Rain = 0
KCO2 240122Z 17005KT 19/01 A2996 RMK A01 T01850011  RH  031%=      5-min Rain = 0
KCO2 240123Z 17006KT 18/01 A2996 RMK A01 T01840011  RH  031%=      5-min Rain = 0
KCO2 240124Z 17006KT 18/01 A2996 RMK A01 T01840011  RH  031%=      5-min Rain = 0
KCO2 240125Z 17006KT 18/01 A2996 RMK A01 T01830011  RH  031%=      5-min Rain = 0
KCO2 240126Z 17006KT 18/01 A2996 RMK A01 T01830011  RH  032%=      5-min Rain = 0
KCO2 240127Z 17006KT 18/01 A2996 RMK A01 T01820012  RH  032%=      5-min Rain = 0
KCO2 240128Z 17005KT 18/01 A2996 RMK A01 T01810011  RH  032%=      5-min Rain = 0
KCO2 240129Z 17005KT 18/01 A2996 RMK A01 T01810012  RH  032%=      5-min Rain = 0
KCO2 240130Z 17005KT 18/01 A2996 RMK A01 T01810012  RH  032%=      5-min Rain = 0
KCO2 240131Z 17005KT 18/01 A2996 RMK A01 T01810012  RH  032%=      5-min Rain = 0
KCO2 240132Z 16005KT 18/01 A2996 RMK A01 T01810012  RH  032%=      5-min Rain = 0
KCO2 240133Z 16005KT 18/01 A2997 RMK A01 T01810012  RH  032%=      5-min Rain = 0
KCO2 240134Z 16005KT 18/01 A2997 RMK A01 T01810012  RH  032%=      5-min Rain = 0
KCO2 240135Z 15004KT 18/01 A2997 RMK A01 T01800012  RH  032%=      5-min Rain = 0
KCO2 240136Z 15004KT 18/01 A2997 RMK A01 T01800013  RH  033%=      5-min Rain = 0
KCO2 240137Z 14004KT 18/01 A2997 RMK A01 T01790014  RH  033%=      5-min Rain = 0
KCO2 240138Z 14004KT 18/01 A2997 RMK A01 T01780014  RH  033%=      5-min Rain = 0
KCO2 240139Z 14004KT 18/01 A2997 RMK A01 T01780014  RH  033%=      5-min Rain = 0
KCO2 240140Z 15004KT 18/01 A2997 RMK A01 T01780014  RH  033%=      5-min Rain = 0
KCO2 240141Z 15004KT 18/01 A2997 RMK A01 T01780013  RH  033%=      5-min Rain = 0
KCO2 240142Z 15004KT 18/01 A2997 RMK A01 T01780012  RH  033%=      5-min Rain = 0
KCO2 240143Z 15004KT 18/01 A2997 RMK A01 T01790013  RH  033%=      5-min Rain = 0
KCO2 240144Z 15004KT 18/01 A2997 RMK A01 T01790013  RH  033%=      5-min Rain = 0
KCO2 240145Z 15005KT 18/01 A2997 RMK A01 T01800013  RH  033%=      5-min Rain = 0
KCO2 240146Z 15005KT 18/01 A2997 RMK A01 T01800014  RH  033%=      5-min Rain = 0
KCO2 240147Z 15005KT 18/01 A2997 RMK A01 T01800014  RH  033%=      5-min Rain = 0
KCO2 240148Z 15005KT 18/01 A2997 RMK A01 T01800014  RH  033%=      5-min Rain = 0
KCO2 240149Z 15005KT 18/02 A2997 RMK A01 T01800015  RH  033%=      5-min Rain = 0
KCO2 240150Z 16005KT 18/02 A2997 RMK A01 T01790016  RH  033%=      5-min Rain = 0
KCO2 240151Z 16005KT 18/02 A2997 RMK A01 T01790016  RH  033%=      5-min Rain = 0
KCO2 240152Z 16005KT 18/02 A2997 RMK A01 T01780016  RH  034%=      5-min Rain = 0
KCO2 240153Z 16005KT 18/02 A2997 RMK A01 T01780016  RH  034%=      5-min Rain = 0
KCO2 240154Z 16005KT 18/02 A2997 RMK A01 T01770017  RH  034%=      5-min Rain = 0
KCO2 240155Z 16005KT 18/02 A2997 RMK A01 T01770016  RH  034%=      5-min Rain = 0
KCO2 240156Z 16005KT 18/02 A2997 RMK A01 T01770016  RH  034%=      5-min Rain = 0
KCO2 240157Z 16004KT 18/02 A2997 RMK A01 T01780016  RH  034%=      5-min Rain = 0
KCO2 240158Z 15004KT 18/02 A2997 RMK A01 T01780016  RH  034%=      5-min Rain = 0
KCO2 240159Z 16004KT 18/02 A2997 RMK A01 T01780016  RH  034%=      5-min Rain = 0
KCO2 240200Z 16004KT 18/02 A2997 RMK A01 T01770016  RH  034%=      5-min Rain = 0
KCO2 240201Z 16004KT 18/02 A2997 RMK A01 T01770015  RH  034%=      5-min Rain = 0
KCO2 240202Z 15004KT 18/02 A2997 RMK A01 T01770016  RH  034%=      5-min Rain = 0
KCO2 240203Z 15004KT 18/02 A2997 RMK A01 T01770016  RH  034%=      5-min Rain = 0
KCO2 240204Z 15005KT 18/02 A2997 RMK A01 T01760016  RH  034%=      5-min Rain = 0
KCO2 240205Z 15005KT 18/02 A2997 RMK A01 T01760015  RH  034%=      5-min Rain = 0
KCO2 240206Z 15005KT 18/02 A2997 RMK A01 T01750015  RH  034%=      5-min Rain = 0
KCO2 240207Z 15005KT 18/02 A2997 RMK A01 T01750015  RH  034%=      5-min Rain = 0
KCO2 240208Z 15005KT 17/01 A2997 RMK A01 T01740014  RH  034%=      5-min Rain = 0
KCO2 240209Z 15005KT 17/01 A2997 RMK A01 T01740014  RH  034%=      5-min Rain = 0
KCO2 240210Z 15005KT 17/01 A2997 RMK A01 T01730014  RH  034%=      5-min Rain = 0
KCO2 240211Z 15006KT 17/01 A2997 RMK A01 T01720014  RH  035%=      5-min Rain = 0
KCO2 240212Z 15005KT 17/02 A2997 RMK A01 T01710015  RH  035%=      5-min Rain = 0
KCO2 240213Z 15005KT 17/02 A2997 RMK A01 T01700015  RH  035%=      5-min Rain = 0
KCO2 240214Z 15006KT 17/01 A2997 RMK A01 T01700014  RH  035%=      5-min Rain = 0
KCO2 240215Z 14005KT 17/01 A2997 RMK A01 T01700014  RH  035%=      5-min Rain = 0
KCO2 240216Z 14005KT 17/01 A2997 RMK A01 T01700014  RH  035%=      5-min Rain = 0
KCO2 240217Z 14005KT 17/01 A2997 RMK A01 T01700013  RH  035%=      5-min Rain = 0
KCO2 240218Z 15005KT 17/01 A2997 RMK A01 T01700014  RH  035%=      5-min Rain = 0
KCO2 240219Z 14005KT 17/01 A2997 RMK A01 T01690014  RH  035%=      5-min Rain = 0
KCO2 240220Z 14005KT 17/01 A2997 RMK A01 T01690014  RH  035%=      5-min Rain = 0
KCO2 240221Z 14005KT 17/01 A2997 RMK A01 T01690014  RH  035%=      5-min Rain = 0
KCO2 240222Z 14005KT 17/01 A2998 RMK A01 T01680014  RH  035%=      5-min Rain = 0
KCO2 240223Z 14005KT 17/01 A2998 RMK A01 T01690014  RH  035%=      5-min Rain = 0
KCO2 240224Z 14005KT 17/01 A2998 RMK A01 T01680013  RH  035%=      5-min Rain = 0
KCO2 240225Z 14005KT 17/01 A2998 RMK A01 T01680014  RH  035%=      5-min Rain = 0
KCO2 240226Z 14005KT 17/01 A2998 RMK A01 T01680013  RH  035%=      5-min Rain = 0
KCO2 240227Z 14005KT 17/01 A2998 RMK A01 T01680013  RH  035%=      5-min Rain = 0
KCO2 240228Z 14005KT 17/01 A2998 RMK A01 T01680012  RH  035%=      5-min Rain = 0
KCO2 240229Z 14005KT 17/01 A2998 RMK A01 T01680012  RH  035%=      5-min Rain = 0
KCO2 240230Z 14005KT 17/01 A2998 RMK A01 T01690012  RH  035%=      5-min Rain = 0
KCO2 240231Z 14006KT 17/01 A2998 RMK A01 T01690012  RH  035%=      5-min Rain = 0
KCO2 240232Z 15006KT 17/01 A2998 RMK A01 T01690012  RH  035%=      5-min Rain = 0
KCO2 240233Z 14006KT 17/01 A2998 RMK A01 T01690013  RH  035%=      5-min Rain = 0
KCO2 240234Z 14006KT 17/01 A2998 RMK A01 T01690013  RH  035%=      5-min Rain = 0
KCO2 240235Z 14006KT 17/01 A2998 RMK A01 T01680013  RH  035%=      5-min Rain = 0
KCO2 240236Z 14006KT 17/01 A2998 RMK A01 T01670013  RH  035%=      5-min Rain = 0
KCO2 240237Z 14006KT 17/01 A2998 RMK A01 T01660013  RH  035%=      5-min Rain = 0
KCO2 240238Z 14006KT 17/01 A2998 RMK A01 T01660013  RH  036%=      5-min Rain = 0
KCO2 240239Z 14006KT 17/01 A2999 RMK A01 T01650013  RH  036%=      5-min Rain = 0
KCO2 240240Z 14006KT 16/01 A2999 RMK A01 T01640014  RH  036%=      5-min Rain = 0
KCO2 240241Z 14006KT 16/01 A2999 RMK A01 T01640014  RH  036%=      5-min Rain = 0
KCO2 240242Z 14006KT 16/01 A2999 RMK A01 T01640014  RH  036%=      5-min Rain = 0
KCO2 240243Z 14005KT 16/02 A2999 RMK A01 T01640015  RH  037%=      5-min Rain = 0
KCO2 240244Z 14005KT 16/02 A2999 RMK A01 T01640015  RH  037%=      5-min Rain = 0
KCO2 240245Z 14005KT 16/02 A2999 RMK A01 T01640015  RH  037%=      5-min Rain = 0
KCO2 240246Z 14005KT 16/02 A2999 RMK A01 T01640015  RH  037%=      5-min Rain = 0
KCO2 240247Z 14006KT 16/02 A2999 RMK A01 T01640015  RH  036%=      5-min Rain = 0
KCO2 240248Z 14006KT 16/02 A2999 RMK A01 T01640015  RH  037%=      5-min Rain = 0
KCO2 240249Z 14006KT 16/02 A2999 RMK A01 T01640015  RH  037%=      5-min Rain = 0
KCO2 240250Z 15006KT 16/02 A2999 RMK A01 T01640015  RH  037%=      5-min Rain = 0
KCO2 240251Z 14006KT 16/02 A2999 RMK A01 T01640015  RH  037%=      5-min Rain = 0
KCO2 240252Z 15006KT 16/02 A2999 RMK A01 T01630015  RH  037%=      5-min Rain = 0
KCO2 240253Z 15006KT 16/02 A2999 RMK A01 T01630016  RH  037%=      5-min Rain = 0
KCO2 240254Z 15006KT 16/02 A2999 RMK A01 T01620016  RH  037%=      5-min Rain = 0
KCO2 240255Z 15005KT 16/02 A2999 RMK A01 T01620016  RH  037%=      5-min Rain = 0
KCO2 240256Z 15005KT 16/02 A30 RMK A01 T01610017  RH  038%=      5-min Rain = 0
KCO2 240257Z 15005KT 16/02 A30 RMK A01 T01610017  RH  038%=      5-min Rain = 0
KCO2 240258Z 15005KT 16/02 A30 RMK A01 T01600017  RH  038%=      5-min Rain = 0
KCO2 240259Z 15005KT 16/02 A30 RMK A01 T01600017  RH  038%=      5-min Rain = 0
KCO2 240300Z 15005KT 16/02 A30 RMK A01 T01600017  RH  038%=      5-min Rain = 0
KCO2 240301Z 15005KT 16/02 A30 RMK A01 T01590017  RH  038%=      5-min Rain = 0
KCO2 240302Z 16005KT 16/02 A30 RMK A01 T01590017  RH  038%=      5-min Rain = 0
KCO2 240303Z 16005KT 16/02 A30 RMK A01 T01590018  RH  038%=      5-min Rain = 0
KCO2 240304Z 16006KT 16/02 A30 RMK A01 T01590018  RH  038%=      5-min Rain = 0
KCO2 240305Z 16006KT 16/02 A30 RMK A01 T01590017  RH  038%=      5-min Rain = 0
KCO2 240306Z 16006KT 16/02 A30 RMK A01 T01590017  RH  038%=      5-min Rain = 0
KCO2 240307Z 16006KT 16/02 A30 RMK A01 T01590017  RH  038%=      5-min Rain = 0
KCO2 240308Z 16006KT 16/02 A30 RMK A01 T01590017  RH  038%=      5-min Rain = 0
KCO2 240309Z 15005KT 16/02 A30 RMK A01 T01590017  RH  038%=      5-min Rain = 0
KCO2 240310Z 15006KT 16/02 A30 RMK A01 T01590017  RH  038%=      5-min Rain = 0
KCO2 240311Z 15006KT 16/02 A30 RMK A01 T01600017  RH  038%=      5-min Rain = 0
KCO2 240312Z 15006KT 16/02 A30 RMK A01 T01600017  RH  038%=      5-min Rain = 0
KCO2 240313Z 15006KT 16/02 A30 RMK A01 T01590018  RH  038%=      5-min Rain = 0
KCO2 240314Z 16006KT 16/02 A30 RMK A01 T01580018  RH  039%=      5-min Rain = 0
KCO2 240315Z 15006KT 16/02 A30 RMK A01 T01580018  RH  039%=      5-min Rain = 0
KCO2 240316Z 15006KT 16/02 A30 RMK A01 T01570018  RH  039%=      5-min Rain = 0
KCO2 240317Z 15006KT 16/02 A30 RMK A01 T01570018  RH  039%=      5-min Rain = 0
KCO2 240318Z 15006KT 16/02 A30 RMK A01 T01560018  RH  039%=      5-min Rain = 0
KCO2 240319Z 15006KT 16/02 A30 RMK A01 T01560017  RH  039%=      5-min Rain = 0
KCO2 240320Z 15006KT 16/02 A30 RMK A01 T01560018  RH  039%=      5-min Rain = 0
KCO2 240321Z 16006KT 16/02 A30 RMK A01 T01560017  RH  039%=      5-min Rain = 0
KCO2 240322Z 15006KT 16/02 A30 RMK A01 T01570017  RH  039%=      5-min Rain = 0
KCO2 240323Z 15006KT 16/02 A30 RMK A01 T01570017  RH  039%=      5-min Rain = 0
KCO2 240324Z 15006KT 16/02 A30 RMK A01 T01560017  RH  039%=      5-min Rain = 0
KCO2 240325Z 15006KT 16/02 A30 RMK A01 T01560016  RH  039%=      5-min Rain = 0
KCO2 240326Z 15006KT 16/02 A30 RMK A01 T01560016  RH  039%=      5-min Rain = 0
KCO2 240327Z 15006KT 16/02 A30 RMK A01 T01560017  RH  039%=      5-min Rain = 0
KCO2 240328Z 15006KT 16/02 A30 RMK A01 T01550017  RH  039%=      5-min Rain = 0
KCO2 240329Z 15006KT 16/02 A3001 RMK A01 T01550017  RH  039%=      5-min Rain = 0
KCO2 240330Z 15006KT 16/02 A3001 RMK A01 T01550017  RH  039%=      5-min Rain = 0
KCO2 240331Z 15006KT 15/02 A3001 RMK A01 T01540018  RH  040%=      5-min Rain = 0
KCO2 240332Z 15005KT 15/02 A3001 RMK A01 T01530018  RH  040%=      5-min Rain = 0
KCO2 240333Z 15005KT 15/02 A3001 RMK A01 T01530019  RH  040%=      5-min Rain = 0
KCO2 240334Z 15006KT 15/02 A3001 RMK A01 T01520019  RH  041%=      5-min Rain = 0
KCO2 240335Z 15006KT 15/02 A3001 RMK A01 T01520019  RH  041%=      5-min Rain = 0
KCO2 240336Z 15006KT 15/02 A3001 RMK A01 T01520020  RH  041%=      5-min Rain = 0
KCO2 240337Z 15006KT 15/02 A3001 RMK A01 T01510021  RH  041%=      5-min Rain = 0
KCO2 240338Z 15006KT 15/02 A3001 RMK A01 T01500021  RH  042%=      5-min Rain = 0
KCO2 240339Z 15005KT 15/02 A3001 RMK A01 T01500020  RH  042%=      5-min Rain = 0
KCO2 240340Z 14005KT 15/02 A3001 RMK A01 T01500020  RH  042%=      5-min Rain = 0
KCO2 240341Z 14005KT 15/02 A3001 RMK A01 T01500021  RH  042%=      5-min Rain = 0
KCO2 240342Z 14005KT 15/02 A3001 RMK A01 T01490021  RH  042%=      5-min Rain = 0
KCO2 240343Z 14005KT 15/02 A3001 RMK A01 T01500022  RH  042%=      5-min Rain = 0
KCO2 240344Z 14005KT 15/02 A3001 RMK A01 T01490022  RH  042%=      5-min Rain = 0
KCO2 240345Z 14005KT 15/02 A3001 RMK A01 T01500022  RH  042%=      5-min Rain = 0
KCO2 240346Z 14005KT 15/02 A3001 RMK A01 T01500022  RH  042%=      5-min Rain = 0
KCO2 240347Z 15005KT 15/02 A3001 RMK A01 T01500022  RH  042%=      5-min Rain = 0
KCO2 240348Z 15005KT 15/02 A3001 RMK A01 T01500022  RH  042%=      5-min Rain = 0
KCO2 240349Z 14006KT 15/02 A3001 RMK A01 T01500022  RH  042%=      5-min Rain = 0
KCO2 240350Z 14006KT 15/02 A3001 RMK A01 T01490022  RH  042%=      5-min Rain = 0
KCO2 240351Z 14006KT 15/02 A3001 RMK A01 T01470022  RH  043%=      5-min Rain = 0
KCO2 240352Z 14006KT 15/02 A3001 RMK A01 T01460022  RH  043%=      5-min Rain = 0
KCO2 240353Z 14007KT 15/02 A3001 RMK A01 T01450021  RH  043%=      5-min Rain = 0
KCO2 240354Z 14006KT 14/02 A3001 RMK A01 T01440022  RH  044%=      5-min Rain = 0
KCO2 240355Z 14006KT 14/02 A3001 RMK A01 T01430023  RH  044%=      5-min Rain = 0
KCO2 240356Z 14006KT 14/02 A3001 RMK A01 T01420023  RH  045%=      5-min Rain = 0
KCO2 240357Z 14006KT 14/02 A3001 RMK A01 T01410023  RH  045%=      5-min Rain = 0
KCO2 240358Z 14006KT 14/02 A3002 RMK A01 T01410023  RH  045%=      5-min Rain = 0
KCO2 240359Z 14006KT 14/02 A3002 RMK A01 T01400022  RH  045%=      5-min Rain = 0
KCO2 240400Z 14006KT 14/02 A3002 RMK A01 T01400022  RH  045%=      5-min Rain = 0
KCO2 240401Z 14006KT 14/02 A3002 RMK A01 T01400023  RH  045%=      5-min Rain = 0
KCO2 240402Z 14006KT 14/02 A3001 RMK A01 T01400023  RH  045%=      5-min Rain = 0
KCO2 240403Z 14006KT 14/02 A3001 RMK A01 T01400023  RH  045%=      5-min Rain = 0
KCO2 240404Z 14006KT 14/02 A3001 RMK A01 T01400022  RH  045%=      5-min Rain = 0
KCO2 240405Z 14006KT 14/02 A3001 RMK A01 T01400022  RH  045%=      5-min Rain = 0
KCO2 240406Z 14006KT 14/02 A3001 RMK A01 T01400021  RH  044%=      5-min Rain = 0
KCO2 240407Z 14006KT 14/02 A3001 RMK A01 T01400020  RH  044%=      5-min Rain = 0
KCO2 240408Z 14006KT 14/02 A3001 RMK A01 T01390020  RH  044%=      5-min Rain = 0
KCO2 240409Z 14006KT 14/02 A3001 RMK A01 T01390020  RH  044%=      5-min Rain = 0
KCO2 240410Z 14006KT 14/02 A3001 RMK A01 T01390019  RH  044%=      5-min Rain = 0
KCO2 240411Z 14006KT 14/02 A3001 RMK A01 T01380019  RH  044%=      5-min Rain = 0
KCO2 240412Z 14006KT 14/02 A3001 RMK A01 T01380019  RH  044%=      5-min Rain = 0
KCO2 240413Z 14006KT 14/02 A3001 RMK A01 T01380018  RH  044%=      5-min Rain = 0
KCO2 240414Z 14007KT 14/02 A3001 RMK A01 T01370018  RH  044%=      5-min Rain = 0
KCO2 240415Z 14007KT 14/02 A3001 RMK A01 T01370018  RH  044%=      5-min Rain = 0
KCO2 240416Z 14007KT 14/02 A3001 RMK A01 T01370018  RH  045%=      5-min Rain = 0
KCO2 240417Z 14007KT 14/02 A3001 RMK A01 T01360019  RH  045%=      5-min Rain = 0
KCO2 240418Z 14007KT 14/02 A3001 RMK A01 T01360019  RH  045%=      5-min Rain = 0
KCO2 240419Z 14007KT 14/02 A3001 RMK A01 T01370020  RH  045%=      5-min Rain = 0
KCO2 240420Z 14007KT 14/02 A3001 RMK A01 T01370020  RH  045%=      5-min Rain = 0
KCO2 240421Z 14007KT 14/02 A3001 RMK A01 T01370021  RH  045%=      5-min Rain = 0
KCO2 240422Z 14007KT 14/02 A3001 RMK A01 T01360020  RH  045%=      5-min Rain = 0
KCO2 240423Z 14007KT 14/02 A3001 RMK A01 T01360020  RH  045%=      5-min Rain = 0
KCO2 240424Z 14006KT 14/02 A3001 RMK A01 T01370019  RH  045%=      5-min Rain = 0
KCO2 240425Z 14006KT 14/02 A3001 RMK A01 T01360019  RH  045%=      5-min Rain = 0
KCO2 240426Z 14006KT 14/02 A3001 RMK A01 T01360019  RH  045%=      5-min Rain = 0
KCO2 240427Z 14006KT 14/02 A3001 RMK A01 T01360020  RH  045%=      5-min Rain = 0
KCO2 240428Z 14007KT 14/02 A3001 RMK A01 T01350020  RH  046%=      5-min Rain = 0
KCO2 240429Z 14007KT 13/02 A3001 RMK A01 T01340021  RH  046%=      5-min Rain = 0
KCO2 240430Z 14007KT 13/02 A3001 RMK A01 T01340020  RH  046%=      5-min Rain = 0
KCO2 240431Z 14006KT 13/02 A3001 RMK A01 T01340021  RH  046%=      5-min Rain = 0
KCO2 240432Z 14006KT 13/02 A3001 RMK A01 T01340020  RH  046%=      5-min Rain = 0
KCO2 240433Z 14006KT 13/02 A3001 RMK A01 T01340020  RH  046%=      5-min Rain = 0
KCO2 240434Z 15006KT 13/02 A3001 RMK A01 T01340020  RH  046%=      5-min Rain = 0
KCO2 240435Z 15006KT 13/02 A3001 RMK A01 T01340021  RH  046%=      5-min Rain = 0
KCO2 240436Z 15006KT 13/02 A3001 RMK A01 T01340022  RH  047%=      5-min Rain = 0
KCO2 240437Z 15006KT 13/02 A3001 RMK A01 T01340023  RH  047%=      5-min Rain = 0
KCO2 240438Z 15006KT 13/03 A3001 RMK A01 T01340025  RH  048%=      5-min Rain = 0
KCO2 240439Z 15006KT 13/03 A3001 RMK A01 T01340026  RH  048%=      5-min Rain = 0
KCO2 240440Z 15006KT 13/03 A3001 RMK A01 T01330026  RH  048%=      5-min Rain = 0
KCO2 240441Z 15006KT 13/03 A3001 RMK A01 T01320026  RH  049%=      5-min Rain = 0
KCO2 240442Z 15006KT 13/03 A3001 RMK A01 T01320027  RH  049%=      5-min Rain = 0
KCO2 240443Z 15006KT 13/03 A3001 RMK A01 T01320027  RH  049%=      5-min Rain = 0
KCO2 240444Z 15006KT 13/03 A3001 RMK A01 T01310028  RH  049%=      5-min Rain = 0
KCO2 240445Z 15006KT 13/03 A3001 RMK A01 T01310028  RH  050%=      5-min Rain = 0
KCO2 240446Z 15006KT 13/03 A3001 RMK A01 T01300028  RH  050%=      5-min Rain = 0
KCO2 240447Z 15006KT 13/03 A3001 RMK A01 T01300028  RH  050%=      5-min Rain = 0
KCO2 240448Z 15006KT 13/03 A3001 RMK A01 T01290028  RH  050%=      5-min Rain = 0
KCO2 240449Z 15006KT 13/03 A3001 RMK A01 T01290027  RH  050%=      5-min Rain = 0
KCO2 240450Z 15006KT 13/03 A3001 RMK A01 T01290027  RH  050%=      5-min Rain = 0
KCO2 240451Z 15006KT 13/03 A3001 RMK A01 T01290027  RH  050%=      5-min Rain = 0
KCO2 240452Z 15006KT 13/03 A3001 RMK A01 T01290027  RH  050%=      5-min Rain = 0
KCO2 240453Z 15006KT 13/03 A3001 RMK A01 T01290026  RH  050%=      5-min Rain = 0
KCO2 240454Z 15005KT 13/03 A3001 RMK A01 T01290026  RH  050%=      5-min Rain = 0
KCO2 240455Z 15005KT 13/03 A3001 RMK A01 T01280026  RH  050%=      5-min Rain = 0
KCO2 240456Z 15006KT 13/03 A3001 RMK A01 T01280026  RH  050%=      5-min Rain = 0
KCO2 240457Z 15005KT 13/03 A3001 RMK A01 T01280026  RH  050%=      5-min Rain = 0
KCO2 240458Z 15005KT 13/03 A3001 RMK A01 T01270026  RH  050%=      5-min Rain = 0
KCO2 240459Z 15005KT 13/03 A3001 RMK A01 T01270026  RH  050%=      5-min Rain = 0

Page generated in 0.1208 seconds.